<?xml version="1.0" encoding="UTF-8" standalone="no" ?>
<gpx xmlns="http://www.topografix.com/GPX/1/1" xmlns:xsi="http://www.w3.org/2001/XMLSchema-instance" xsi:schemaLocation="http://www.topografix.com/GPX/1/1 http://www.topografix.com/GPX/1/1/gpx.xsd" version="1.1" creator="VisuGPX - https://www.visugpx.com">
  <metadata>
    <name>TOURTOUR - LES INFIRMIERES - LES MOULIERES</name>
    <desc><![CDATA[TOURTOUR - LES INFIRMIERES - LES MOULIERES]]></desc>
  </metadata>
  <trk>
    <name><![CDATA[2017-01-11-M-tourtour]]></name>
    <trkseg>
      <trkpt lat="43.60261" lon="6.29192">
        <ele>660.4</ele>
        <time>2017-01-11T12:58:28Z</time>
      </trkpt>
      <trkpt lat="43.60269" lon="6.29196">
        <ele>661</ele>
        <time>2017-01-11T12:58:35Z</time>
      </trkpt>
      <trkpt lat="43.60277" lon="6.29197">
        <ele>661.5</ele>
        <time>2017-01-11T12:58:43Z</time>
      </trkpt>
      <trkpt lat="43.60284" lon="6.29202">
        <ele>661.7</ele>
        <time>2017-01-11T12:58:50Z</time>
      </trkpt>
      <trkpt lat="43.60292" lon="6.29203">
        <ele>661.8</ele>
        <time>2017-01-11T12:58:54Z</time>
      </trkpt>
      <trkpt lat="43.60294" lon="6.29203">
        <ele>661.8</ele>
        <time>2017-01-11T12:58:55Z</time>
      </trkpt>
      <trkpt lat="43.60308" lon="6.29214">
        <ele>662</ele>
        <time>2017-01-11T12:59:05Z</time>
      </trkpt>
      <trkpt lat="43.60316" lon="6.29218">
        <ele>662.1</ele>
        <time>2017-01-11T12:59:09Z</time>
      </trkpt>
      <trkpt lat="43.60324" lon="6.29218">
        <ele>662.2</ele>
        <time>2017-01-11T12:59:12Z</time>
      </trkpt>
      <trkpt lat="43.60332" lon="6.29218">
        <ele>662.3</ele>
        <time>2017-01-11T12:59:16Z</time>
      </trkpt>
      <trkpt lat="43.60339" lon="6.29211">
        <ele>662.6</ele>
        <time>2017-01-11T12:59:24Z</time>
      </trkpt>
      <trkpt lat="43.60343" lon="6.29222">
        <ele>667</ele>
        <time>2017-01-11T13:06:09Z</time>
      </trkpt>
      <trkpt lat="43.60344" lon="6.29222">
        <ele>667</ele>
        <time>2017-01-11T13:06:10Z</time>
      </trkpt>
      <trkpt lat="43.60359" lon="6.29226">
        <ele>667.5</ele>
        <time>2017-01-11T13:06:24Z</time>
      </trkpt>
      <trkpt lat="43.60367" lon="6.29227">
        <ele>667.7</ele>
        <time>2017-01-11T13:06:31Z</time>
      </trkpt>
      <trkpt lat="43.60376" lon="6.29229">
        <ele>667.9</ele>
        <time>2017-01-11T13:06:39Z</time>
      </trkpt>
      <trkpt lat="43.60384" lon="6.29231">
        <ele>667.8</ele>
        <time>2017-01-11T13:06:47Z</time>
      </trkpt>
      <trkpt lat="43.60392" lon="6.29232">
        <ele>667.9</ele>
        <time>2017-01-11T13:06:54Z</time>
      </trkpt>
      <trkpt lat="43.604" lon="6.29234">
        <ele>668</ele>
        <time>2017-01-11T13:07:01Z</time>
      </trkpt>
      <trkpt lat="43.60407" lon="6.29241">
        <ele>668.2</ele>
        <time>2017-01-11T13:07:08Z</time>
      </trkpt>
      <trkpt lat="43.60411" lon="6.29251">
        <ele>668.3</ele>
        <time>2017-01-11T13:07:16Z</time>
      </trkpt>
      <trkpt lat="43.60412" lon="6.29252">
        <ele>668.4</ele>
        <time>2017-01-11T13:07:17Z</time>
      </trkpt>
      <trkpt lat="43.60413" lon="6.29273">
        <ele>669.1</ele>
        <time>2017-01-11T13:07:31Z</time>
      </trkpt>
      <trkpt lat="43.60417" lon="6.29283">
        <ele>669.8</ele>
        <time>2017-01-11T13:07:39Z</time>
      </trkpt>
      <trkpt lat="43.60426" lon="6.29287">
        <ele>670.3</ele>
        <time>2017-01-11T13:07:48Z</time>
      </trkpt>
      <trkpt lat="43.60434" lon="6.29285">
        <ele>670.9</ele>
        <time>2017-01-11T13:07:58Z</time>
      </trkpt>
      <trkpt lat="43.60442" lon="6.29283">
        <ele>671.2</ele>
        <time>2017-01-11T13:08:06Z</time>
      </trkpt>
      <trkpt lat="43.60451" lon="6.29281">
        <ele>671.7</ele>
        <time>2017-01-11T13:08:14Z</time>
      </trkpt>
      <trkpt lat="43.60459" lon="6.2928">
        <ele>671.8</ele>
        <time>2017-01-11T13:08:21Z</time>
      </trkpt>
      <trkpt lat="43.6046" lon="6.2928">
        <ele>671.8</ele>
        <time>2017-01-11T13:08:22Z</time>
      </trkpt>
      <trkpt lat="43.60476" lon="6.29283">
        <ele>672.1</ele>
        <time>2017-01-11T13:08:40Z</time>
      </trkpt>
      <trkpt lat="43.60484" lon="6.29287">
        <ele>672.4</ele>
        <time>2017-01-11T13:08:50Z</time>
      </trkpt>
      <trkpt lat="43.60492" lon="6.29292">
        <ele>672.5</ele>
        <time>2017-01-11T13:08:59Z</time>
      </trkpt>
      <trkpt lat="43.605" lon="6.29296">
        <ele>672.7</ele>
        <time>2017-01-11T13:09:06Z</time>
      </trkpt>
      <trkpt lat="43.60507" lon="6.293">
        <ele>672.9</ele>
        <time>2017-01-11T13:09:12Z</time>
      </trkpt>
      <trkpt lat="43.60515" lon="6.29304">
        <ele>673</ele>
        <time>2017-01-11T13:09:20Z</time>
      </trkpt>
      <trkpt lat="43.60522" lon="6.2931">
        <ele>673</ele>
        <time>2017-01-11T13:09:28Z</time>
      </trkpt>
      <trkpt lat="43.60523" lon="6.29311">
        <ele>673</ele>
        <time>2017-01-11T13:09:29Z</time>
      </trkpt>
      <trkpt lat="43.60537" lon="6.29322">
        <ele>673</ele>
        <time>2017-01-11T13:09:43Z</time>
      </trkpt>
      <trkpt lat="43.60544" lon="6.29331">
        <ele>673.2</ele>
        <time>2017-01-11T13:09:51Z</time>
      </trkpt>
      <trkpt lat="43.60548" lon="6.29341">
        <ele>673.4</ele>
        <time>2017-01-11T13:09:59Z</time>
      </trkpt>
      <trkpt lat="43.60553" lon="6.29349">
        <ele>673.3</ele>
        <time>2017-01-11T13:10:05Z</time>
      </trkpt>
      <trkpt lat="43.6056" lon="6.29356">
        <ele>673.2</ele>
        <time>2017-01-11T13:10:11Z</time>
      </trkpt>
      <trkpt lat="43.60568" lon="6.29358">
        <ele>673.6</ele>
        <time>2017-01-11T13:10:20Z</time>
      </trkpt>
      <trkpt lat="43.60576" lon="6.2936">
        <ele>673.9</ele>
        <time>2017-01-11T13:10:28Z</time>
      </trkpt>
      <trkpt lat="43.60584" lon="6.29366">
        <ele>674.6</ele>
        <time>2017-01-11T13:10:39Z</time>
      </trkpt>
      <trkpt lat="43.60585" lon="6.29367">
        <ele>674.6</ele>
        <time>2017-01-11T13:10:40Z</time>
      </trkpt>
      <trkpt lat="43.606" lon="6.29373">
        <ele>675.6</ele>
        <time>2017-01-11T13:10:53Z</time>
      </trkpt>
      <trkpt lat="43.60608" lon="6.29375">
        <ele>676.2</ele>
        <time>2017-01-11T13:11:02Z</time>
      </trkpt>
      <trkpt lat="43.60616" lon="6.29377">
        <ele>676.1</ele>
        <time>2017-01-11T13:11:11Z</time>
      </trkpt>
      <trkpt lat="43.60625" lon="6.29377">
        <ele>676.2</ele>
        <time>2017-01-11T13:11:19Z</time>
      </trkpt>
      <trkpt lat="43.60633" lon="6.29378">
        <ele>676.6</ele>
        <time>2017-01-11T13:11:28Z</time>
      </trkpt>
      <trkpt lat="43.60641" lon="6.29382">
        <ele>676.9</ele>
        <time>2017-01-11T13:11:38Z</time>
      </trkpt>
      <trkpt lat="43.6065" lon="6.29382">
        <ele>676</ele>
        <time>2017-01-11T13:11:58Z</time>
      </trkpt>
      <trkpt lat="43.6065" lon="6.29382">
        <ele>675.9</ele>
        <time>2017-01-11T13:11:59Z</time>
      </trkpt>
      <trkpt lat="43.60666" lon="6.29393">
        <ele>676.3</ele>
        <time>2017-01-11T13:13:23Z</time>
      </trkpt>
      <trkpt lat="43.60666" lon="6.29393">
        <ele>676.3</ele>
        <time>2017-01-11T13:13:24Z</time>
      </trkpt>
      <trkpt lat="43.60681" lon="6.29403">
        <ele>676.8</ele>
        <time>2017-01-11T13:13:45Z</time>
      </trkpt>
      <trkpt lat="43.60688" lon="6.29409">
        <ele>677.4</ele>
        <time>2017-01-11T13:13:56Z</time>
      </trkpt>
      <trkpt lat="43.60694" lon="6.29417">
        <ele>677.1</ele>
        <time>2017-01-11T13:14:07Z</time>
      </trkpt>
      <trkpt lat="43.607" lon="6.29425">
        <ele>677.2</ele>
        <time>2017-01-11T13:14:18Z</time>
      </trkpt>
      <trkpt lat="43.60705" lon="6.29435">
        <ele>677.4</ele>
        <time>2017-01-11T13:14:26Z</time>
      </trkpt>
      <trkpt lat="43.60705" lon="6.29436">
        <ele>677.4</ele>
        <time>2017-01-11T13:14:27Z</time>
      </trkpt>
      <trkpt lat="43.60715" lon="6.29453">
        <ele>678</ele>
        <time>2017-01-11T13:14:41Z</time>
      </trkpt>
      <trkpt lat="43.6072" lon="6.29464">
        <ele>678.4</ele>
        <time>2017-01-11T13:14:49Z</time>
      </trkpt>
      <trkpt lat="43.60725" lon="6.29473">
        <ele>678.6</ele>
        <time>2017-01-11T13:15:01Z</time>
      </trkpt>
      <trkpt lat="43.60725" lon="6.29484">
        <ele>678.6</ele>
        <time>2017-01-11T13:15:10Z</time>
      </trkpt>
      <trkpt lat="43.60727" lon="6.29495">
        <ele>678.7</ele>
        <time>2017-01-11T13:15:17Z</time>
      </trkpt>
      <trkpt lat="43.60728" lon="6.29505">
        <ele>678.4</ele>
        <time>2017-01-11T13:15:24Z</time>
      </trkpt>
      <trkpt lat="43.60733" lon="6.29515">
        <ele>678.3</ele>
        <time>2017-01-11T13:15:30Z</time>
      </trkpt>
      <trkpt lat="43.60734" lon="6.29517">
        <ele>678.3</ele>
        <time>2017-01-11T13:15:31Z</time>
      </trkpt>
      <trkpt lat="43.60739" lon="6.29534">
        <ele>678.5</ele>
        <time>2017-01-11T13:15:39Z</time>
      </trkpt>
      <trkpt lat="43.60738" lon="6.29544">
        <ele>678.9</ele>
        <time>2017-01-11T13:15:46Z</time>
      </trkpt>
      <trkpt lat="43.60738" lon="6.29556">
        <ele>679.4</ele>
        <time>2017-01-11T13:15:56Z</time>
      </trkpt>
      <trkpt lat="43.6074" lon="6.29568">
        <ele>680</ele>
        <time>2017-01-11T13:16:06Z</time>
      </trkpt>
      <trkpt lat="43.60744" lon="6.29578">
        <ele>680.5</ele>
        <time>2017-01-11T13:16:17Z</time>
      </trkpt>
      <trkpt lat="43.60747" lon="6.29589">
        <ele>680.6</ele>
        <time>2017-01-11T13:16:23Z</time>
      </trkpt>
      <trkpt lat="43.6075" lon="6.29599">
        <ele>680.8</ele>
        <time>2017-01-11T13:16:28Z</time>
      </trkpt>
      <trkpt lat="43.60753" lon="6.29609">
        <ele>681.1</ele>
        <time>2017-01-11T13:16:33Z</time>
      </trkpt>
      <trkpt lat="43.60753" lon="6.29611">
        <ele>681.1</ele>
        <time>2017-01-11T13:16:34Z</time>
      </trkpt>
      <trkpt lat="43.60757" lon="6.29632">
        <ele>681.9</ele>
        <time>2017-01-11T13:16:53Z</time>
      </trkpt>
      <trkpt lat="43.60761" lon="6.29643">
        <ele>682.4</ele>
        <time>2017-01-11T13:17:15Z</time>
      </trkpt>
      <trkpt lat="43.60769" lon="6.29649">
        <ele>682.8</ele>
        <time>2017-01-11T13:18:22Z</time>
      </trkpt>
      <trkpt lat="43.60769" lon="6.2965">
        <ele>682.8</ele>
        <time>2017-01-11T13:18:23Z</time>
      </trkpt>
      <trkpt lat="43.60779" lon="6.29667">
        <ele>683.4</ele>
        <time>2017-01-11T13:18:41Z</time>
      </trkpt>
      <trkpt lat="43.60782" lon="6.29678">
        <ele>683.5</ele>
        <time>2017-01-11T13:18:51Z</time>
      </trkpt>
      <trkpt lat="43.60783" lon="6.29689">
        <ele>683.5</ele>
        <time>2017-01-11T13:18:58Z</time>
      </trkpt>
      <trkpt lat="43.60785" lon="6.297">
        <ele>683.6</ele>
        <time>2017-01-11T13:19:05Z</time>
      </trkpt>
      <trkpt lat="43.6079" lon="6.29709">
        <ele>684.1</ele>
        <time>2017-01-11T13:19:15Z</time>
      </trkpt>
      <trkpt lat="43.60797" lon="6.29714">
        <ele>684.5</ele>
        <time>2017-01-11T13:19:23Z</time>
      </trkpt>
      <trkpt lat="43.60799" lon="6.29715">
        <ele>684.5</ele>
        <time>2017-01-11T13:19:24Z</time>
      </trkpt>
      <trkpt lat="43.60811" lon="6.29728">
        <ele>685.3</ele>
        <time>2017-01-11T13:19:40Z</time>
      </trkpt>
      <trkpt lat="43.60815" lon="6.29738">
        <ele>685.5</ele>
        <time>2017-01-11T13:19:46Z</time>
      </trkpt>
      <trkpt lat="43.60815" lon="6.2975">
        <ele>685.7</ele>
        <time>2017-01-11T13:19:57Z</time>
      </trkpt>
      <trkpt lat="43.60816" lon="6.29761">
        <ele>686.3</ele>
        <time>2017-01-11T13:20:05Z</time>
      </trkpt>
      <trkpt lat="43.60814" lon="6.29773">
        <ele>687</ele>
        <time>2017-01-11T13:20:14Z</time>
      </trkpt>
      <trkpt lat="43.60815" lon="6.29785">
        <ele>687.5</ele>
        <time>2017-01-11T13:20:22Z</time>
      </trkpt>
      <trkpt lat="43.6082" lon="6.29793">
        <ele>688.3</ele>
        <time>2017-01-11T13:20:34Z</time>
      </trkpt>
      <trkpt lat="43.60821" lon="6.29794">
        <ele>688.4</ele>
        <time>2017-01-11T13:20:35Z</time>
      </trkpt>
      <trkpt lat="43.60837" lon="6.298">
        <ele>689.6</ele>
        <time>2017-01-11T13:20:52Z</time>
      </trkpt>
      <trkpt lat="43.60843" lon="6.29806">
        <ele>689.8</ele>
        <time>2017-01-11T13:21:01Z</time>
      </trkpt>
      <trkpt lat="43.6085" lon="6.29814">
        <ele>690.6</ele>
        <time>2017-01-11T13:21:12Z</time>
      </trkpt>
      <trkpt lat="43.60857" lon="6.29822">
        <ele>691.1</ele>
        <time>2017-01-11T13:21:20Z</time>
      </trkpt>
      <trkpt lat="43.60862" lon="6.2983">
        <ele>691.9</ele>
        <time>2017-01-11T13:21:28Z</time>
      </trkpt>
      <trkpt lat="43.60867" lon="6.29841">
        <ele>691.9</ele>
        <time>2017-01-11T13:21:36Z</time>
      </trkpt>
      <trkpt lat="43.60867" lon="6.29842">
        <ele>691.9</ele>
        <time>2017-01-11T13:21:37Z</time>
      </trkpt>
      <trkpt lat="43.60879" lon="6.29857">
        <ele>692.5</ele>
        <time>2017-01-11T13:21:52Z</time>
      </trkpt>
      <trkpt lat="43.60884" lon="6.29866">
        <ele>693</ele>
        <time>2017-01-11T13:22:02Z</time>
      </trkpt>
      <trkpt lat="43.6089" lon="6.29873">
        <ele>693.3</ele>
        <time>2017-01-11T13:22:08Z</time>
      </trkpt>
      <trkpt lat="43.60897" lon="6.29881">
        <ele>693.6</ele>
        <time>2017-01-11T13:22:15Z</time>
      </trkpt>
      <trkpt lat="43.60903" lon="6.29889">
        <ele>693.7</ele>
        <time>2017-01-11T13:22:22Z</time>
      </trkpt>
      <trkpt lat="43.60907" lon="6.29899">
        <ele>693.9</ele>
        <time>2017-01-11T13:22:29Z</time>
      </trkpt>
      <trkpt lat="43.60909" lon="6.2991">
        <ele>694.3</ele>
        <time>2017-01-11T13:22:36Z</time>
      </trkpt>
      <trkpt lat="43.60909" lon="6.29923">
        <ele>694.6</ele>
        <time>2017-01-11T13:22:45Z</time>
      </trkpt>
      <trkpt lat="43.60909" lon="6.29924">
        <ele>694.7</ele>
        <time>2017-01-11T13:22:46Z</time>
      </trkpt>
      <trkpt lat="43.6091" lon="6.29947">
        <ele>695.8</ele>
        <time>2017-01-11T13:23:24Z</time>
      </trkpt>
      <trkpt lat="43.60914" lon="6.29958">
        <ele>695.8</ele>
        <time>2017-01-11T13:23:35Z</time>
      </trkpt>
      <trkpt lat="43.60918" lon="6.29968">
        <ele>696.4</ele>
        <time>2017-01-11T13:23:45Z</time>
      </trkpt>
      <trkpt lat="43.60922" lon="6.29979">
        <ele>696.9</ele>
        <time>2017-01-11T13:23:53Z</time>
      </trkpt>
      <trkpt lat="43.60922" lon="6.2998">
        <ele>697</ele>
        <time>2017-01-11T13:23:54Z</time>
      </trkpt>
      <trkpt lat="43.60927" lon="6.30002">
        <ele>697.4</ele>
        <time>2017-01-11T13:24:09Z</time>
      </trkpt>
      <trkpt lat="43.60929" lon="6.30013">
        <ele>697.5</ele>
        <time>2017-01-11T13:24:16Z</time>
      </trkpt>
      <trkpt lat="43.60929" lon="6.30025">
        <ele>697.7</ele>
        <time>2017-01-11T13:24:24Z</time>
      </trkpt>
      <trkpt lat="43.60927" lon="6.30037">
        <ele>698.2</ele>
        <time>2017-01-11T13:24:33Z</time>
      </trkpt>
      <trkpt lat="43.60925" lon="6.30049">
        <ele>698.5</ele>
        <time>2017-01-11T13:24:41Z</time>
      </trkpt>
      <trkpt lat="43.60927" lon="6.3006">
        <ele>698.4</ele>
        <time>2017-01-11T13:24:49Z</time>
      </trkpt>
      <trkpt lat="43.60933" lon="6.30069">
        <ele>698.7</ele>
        <time>2017-01-11T13:24:59Z</time>
      </trkpt>
      <trkpt lat="43.60934" lon="6.30069">
        <ele>698.7</ele>
        <time>2017-01-11T13:25:00Z</time>
      </trkpt>
      <trkpt lat="43.60948" lon="6.3008">
        <ele>699.3</ele>
        <time>2017-01-11T13:25:18Z</time>
      </trkpt>
      <trkpt lat="43.60956" lon="6.30078">
        <ele>700</ele>
        <time>2017-01-11T13:25:32Z</time>
      </trkpt>
      <trkpt lat="43.60964" lon="6.30084">
        <ele>700.7</ele>
        <time>2017-01-11T13:25:45Z</time>
      </trkpt>
      <trkpt lat="43.6097" lon="6.30092">
        <ele>701.1</ele>
        <time>2017-01-11T13:25:54Z</time>
      </trkpt>
      <trkpt lat="43.60976" lon="6.301">
        <ele>701.7</ele>
        <time>2017-01-11T13:26:04Z</time>
      </trkpt>
      <trkpt lat="43.60977" lon="6.30101">
        <ele>701.8</ele>
        <time>2017-01-11T13:26:05Z</time>
      </trkpt>
      <trkpt lat="43.60985" lon="6.30121">
        <ele>703.2</ele>
        <time>2017-01-11T13:26:28Z</time>
      </trkpt>
      <trkpt lat="43.60988" lon="6.30132">
        <ele>703.6</ele>
        <time>2017-01-11T13:26:42Z</time>
      </trkpt>
      <trkpt lat="43.60992" lon="6.30143">
        <ele>704.1</ele>
        <time>2017-01-11T13:26:53Z</time>
      </trkpt>
      <trkpt lat="43.60995" lon="6.30153">
        <ele>704.5</ele>
        <time>2017-01-11T13:27:07Z</time>
      </trkpt>
      <trkpt lat="43.60996" lon="6.30154">
        <ele>704.6</ele>
        <time>2017-01-11T13:27:08Z</time>
      </trkpt>
      <trkpt lat="43.61" lon="6.30176">
        <ele>706.2</ele>
        <time>2017-01-11T13:27:35Z</time>
      </trkpt>
      <trkpt lat="43.61002" lon="6.30187">
        <ele>706.8</ele>
        <time>2017-01-11T13:27:45Z</time>
      </trkpt>
      <trkpt lat="43.61005" lon="6.30198">
        <ele>707.1</ele>
        <time>2017-01-11T13:27:55Z</time>
      </trkpt>
      <trkpt lat="43.6101" lon="6.30207">
        <ele>707.6</ele>
        <time>2017-01-11T13:28:06Z</time>
      </trkpt>
      <trkpt lat="43.61014" lon="6.30217">
        <ele>707.9</ele>
        <time>2017-01-11T13:28:17Z</time>
      </trkpt>
      <trkpt lat="43.61014" lon="6.30218">
        <ele>708</ele>
        <time>2017-01-11T13:28:18Z</time>
      </trkpt>
      <trkpt lat="43.61017" lon="6.30241">
        <ele>709.7</ele>
        <time>2017-01-11T13:28:40Z</time>
      </trkpt>
      <trkpt lat="43.61018" lon="6.30253">
        <ele>710.7</ele>
        <time>2017-01-11T13:28:51Z</time>
      </trkpt>
      <trkpt lat="43.61021" lon="6.30265">
        <ele>710.9</ele>
        <time>2017-01-11T13:29:02Z</time>
      </trkpt>
      <trkpt lat="43.61025" lon="6.30275">
        <ele>710.9</ele>
        <time>2017-01-11T13:29:15Z</time>
      </trkpt>
      <trkpt lat="43.6103" lon="6.30284">
        <ele>711.8</ele>
        <time>2017-01-11T13:29:29Z</time>
      </trkpt>
      <trkpt lat="43.6103" lon="6.30285">
        <ele>711.8</ele>
        <time>2017-01-11T13:29:30Z</time>
      </trkpt>
      <trkpt lat="43.61034" lon="6.30307">
        <ele>713.3</ele>
        <time>2017-01-11T13:29:52Z</time>
      </trkpt>
      <trkpt lat="43.61038" lon="6.30318">
        <ele>713.9</ele>
        <time>2017-01-11T13:30:03Z</time>
      </trkpt>
      <trkpt lat="43.61041" lon="6.30328">
        <ele>713.7</ele>
        <time>2017-01-11T13:30:10Z</time>
      </trkpt>
      <trkpt lat="43.61042" lon="6.3034">
        <ele>713.8</ele>
        <time>2017-01-11T13:30:18Z</time>
      </trkpt>
      <trkpt lat="43.61042" lon="6.30352">
        <ele>714.2</ele>
        <time>2017-01-11T13:30:29Z</time>
      </trkpt>
      <trkpt lat="43.61042" lon="6.30364">
        <ele>714.6</ele>
        <time>2017-01-11T13:30:39Z</time>
      </trkpt>
      <trkpt lat="43.61042" lon="6.30366">
        <ele>714.7</ele>
        <time>2017-01-11T13:30:40Z</time>
      </trkpt>
      <trkpt lat="43.61041" lon="6.30386">
        <ele>715.2</ele>
        <time>2017-01-11T13:30:55Z</time>
      </trkpt>
      <trkpt lat="43.61039" lon="6.30398">
        <ele>715.9</ele>
        <time>2017-01-11T13:31:05Z</time>
      </trkpt>
      <trkpt lat="43.61037" lon="6.3041">
        <ele>716.3</ele>
        <time>2017-01-11T13:31:15Z</time>
      </trkpt>
      <trkpt lat="43.61037" lon="6.30422">
        <ele>716.7</ele>
        <time>2017-01-11T13:31:26Z</time>
      </trkpt>
      <trkpt lat="43.6104" lon="6.30433">
        <ele>716.6</ele>
        <time>2017-01-11T13:31:34Z</time>
      </trkpt>
      <trkpt lat="43.61041" lon="6.30443">
        <ele>716.6</ele>
        <time>2017-01-11T13:31:42Z</time>
      </trkpt>
      <trkpt lat="43.61041" lon="6.30445">
        <ele>716.7</ele>
        <time>2017-01-11T13:31:43Z</time>
      </trkpt>
      <trkpt lat="43.61041" lon="6.30466">
        <ele>716.9</ele>
        <time>2017-01-11T13:31:59Z</time>
      </trkpt>
      <trkpt lat="43.61038" lon="6.30476">
        <ele>717.4</ele>
        <time>2017-01-11T13:32:08Z</time>
      </trkpt>
      <trkpt lat="43.61033" lon="6.30486">
        <ele>717.8</ele>
        <time>2017-01-11T13:32:18Z</time>
      </trkpt>
      <trkpt lat="43.6103" lon="6.30497">
        <ele>718.5</ele>
        <time>2017-01-11T13:32:29Z</time>
      </trkpt>
      <trkpt lat="43.61025" lon="6.30506">
        <ele>719</ele>
        <time>2017-01-11T13:32:38Z</time>
      </trkpt>
      <trkpt lat="43.61022" lon="6.30518">
        <ele>719.6</ele>
        <time>2017-01-11T13:32:49Z</time>
      </trkpt>
      <trkpt lat="43.61022" lon="6.30519">
        <ele>719.7</ele>
        <time>2017-01-11T13:32:50Z</time>
      </trkpt>
      <trkpt lat="43.61019" lon="6.3054">
        <ele>721.3</ele>
        <time>2017-01-11T13:33:13Z</time>
      </trkpt>
      <trkpt lat="43.61016" lon="6.30551">
        <ele>722.5</ele>
        <time>2017-01-11T13:33:25Z</time>
      </trkpt>
      <trkpt lat="43.61013" lon="6.30562">
        <ele>723.3</ele>
        <time>2017-01-11T13:33:35Z</time>
      </trkpt>
      <trkpt lat="43.6101" lon="6.30573">
        <ele>724.1</ele>
        <time>2017-01-11T13:33:43Z</time>
      </trkpt>
      <trkpt lat="43.61008" lon="6.30584">
        <ele>724.9</ele>
        <time>2017-01-11T13:33:53Z</time>
      </trkpt>
      <trkpt lat="43.61007" lon="6.30585">
        <ele>725</ele>
        <time>2017-01-11T13:33:54Z</time>
      </trkpt>
      <trkpt lat="43.61" lon="6.30606">
        <ele>726.3</ele>
        <time>2017-01-11T13:34:14Z</time>
      </trkpt>
      <trkpt lat="43.60996" lon="6.30617">
        <ele>727</ele>
        <time>2017-01-11T13:34:24Z</time>
      </trkpt>
      <trkpt lat="43.60994" lon="6.30628">
        <ele>728</ele>
        <time>2017-01-11T13:34:33Z</time>
      </trkpt>
      <trkpt lat="43.6099" lon="6.30638">
        <ele>728.4</ele>
        <time>2017-01-11T13:34:40Z</time>
      </trkpt>
      <trkpt lat="43.60986" lon="6.30648">
        <ele>728.8</ele>
        <time>2017-01-11T13:34:47Z</time>
      </trkpt>
      <trkpt lat="43.60982" lon="6.30659">
        <ele>729.6</ele>
        <time>2017-01-11T13:34:57Z</time>
      </trkpt>
      <trkpt lat="43.60982" lon="6.3066">
        <ele>729.7</ele>
        <time>2017-01-11T13:34:58Z</time>
      </trkpt>
      <trkpt lat="43.60973" lon="6.30679">
        <ele>730.7</ele>
        <time>2017-01-11T13:35:16Z</time>
      </trkpt>
      <trkpt lat="43.60969" lon="6.30691">
        <ele>731.2</ele>
        <time>2017-01-11T13:35:26Z</time>
      </trkpt>
      <trkpt lat="43.60966" lon="6.30702">
        <ele>731.3</ele>
        <time>2017-01-11T13:35:36Z</time>
      </trkpt>
      <trkpt lat="43.60965" lon="6.30713">
        <ele>732.3</ele>
        <time>2017-01-11T13:35:49Z</time>
      </trkpt>
      <trkpt lat="43.60963" lon="6.30724">
        <ele>733.4</ele>
        <time>2017-01-11T13:36:00Z</time>
      </trkpt>
      <trkpt lat="43.60963" lon="6.30726">
        <ele>733.5</ele>
        <time>2017-01-11T13:36:01Z</time>
      </trkpt>
      <trkpt lat="43.60957" lon="6.30746">
        <ele>734.5</ele>
        <time>2017-01-11T13:36:21Z</time>
      </trkpt>
      <trkpt lat="43.60954" lon="6.30757">
        <ele>735.2</ele>
        <time>2017-01-11T13:36:31Z</time>
      </trkpt>
      <trkpt lat="43.60953" lon="6.30769">
        <ele>735.9</ele>
        <time>2017-01-11T13:36:41Z</time>
      </trkpt>
      <trkpt lat="43.6095" lon="6.3078">
        <ele>737.1</ele>
        <time>2017-01-11T13:36:53Z</time>
      </trkpt>
      <trkpt lat="43.60948" lon="6.30792">
        <ele>737.8</ele>
        <time>2017-01-11T13:37:04Z</time>
      </trkpt>
      <trkpt lat="43.60948" lon="6.30792">
        <ele>737.8</ele>
        <time>2017-01-11T13:37:05Z</time>
      </trkpt>
      <trkpt lat="43.60939" lon="6.30812">
        <ele>739</ele>
        <time>2017-01-11T13:37:27Z</time>
      </trkpt>
      <trkpt lat="43.60938" lon="6.30824">
        <ele>740.2</ele>
        <time>2017-01-11T13:37:40Z</time>
      </trkpt>
      <trkpt lat="43.60938" lon="6.30835">
        <ele>741.4</ele>
        <time>2017-01-11T13:37:55Z</time>
      </trkpt>
      <trkpt lat="43.60939" lon="6.30847">
        <ele>742.6</ele>
        <time>2017-01-11T13:38:07Z</time>
      </trkpt>
      <trkpt lat="43.60939" lon="6.30848">
        <ele>742.7</ele>
        <time>2017-01-11T13:38:08Z</time>
      </trkpt>
      <trkpt lat="43.60934" lon="6.30869">
        <ele>743.1</ele>
        <time>2017-01-11T13:38:26Z</time>
      </trkpt>
      <trkpt lat="43.6093" lon="6.30879">
        <ele>743</ele>
        <time>2017-01-11T13:38:36Z</time>
      </trkpt>
      <trkpt lat="43.60926" lon="6.30889">
        <ele>743.7</ele>
        <time>2017-01-11T13:38:49Z</time>
      </trkpt>
      <trkpt lat="43.60924" lon="6.309">
        <ele>744.4</ele>
        <time>2017-01-11T13:39:01Z</time>
      </trkpt>
      <trkpt lat="43.60919" lon="6.3091">
        <ele>745.6</ele>
        <time>2017-01-11T13:39:09Z</time>
      </trkpt>
      <trkpt lat="43.60919" lon="6.30911">
        <ele>745.7</ele>
        <time>2017-01-11T13:39:10Z</time>
      </trkpt>
      <trkpt lat="43.6091" lon="6.30929">
        <ele>747</ele>
        <time>2017-01-11T13:39:28Z</time>
      </trkpt>
      <trkpt lat="43.60908" lon="6.30941">
        <ele>747.8</ele>
        <time>2017-01-11T13:39:39Z</time>
      </trkpt>
      <trkpt lat="43.60905" lon="6.30951">
        <ele>748.6</ele>
        <time>2017-01-11T13:39:51Z</time>
      </trkpt>
      <trkpt lat="43.60899" lon="6.30959">
        <ele>749.7</ele>
        <time>2017-01-11T13:40:01Z</time>
      </trkpt>
      <trkpt lat="43.60897" lon="6.3097">
        <ele>750.4</ele>
        <time>2017-01-11T13:40:10Z</time>
      </trkpt>
      <trkpt lat="43.60897" lon="6.30971">
        <ele>750.5</ele>
        <time>2017-01-11T13:40:11Z</time>
      </trkpt>
      <trkpt lat="43.60897" lon="6.30986">
        <ele>752.3</ele>
        <time>2017-01-11T13:40:39Z</time>
      </trkpt>
      <trkpt lat="43.60905" lon="6.30991">
        <ele>752.6</ele>
        <time>2017-01-11T13:40:51Z</time>
      </trkpt>
      <trkpt lat="43.60897" lon="6.30997">
        <ele>752.7</ele>
        <time>2017-01-11T13:41:05Z</time>
      </trkpt>
      <trkpt lat="43.60904" lon="6.31005">
        <ele>753.9</ele>
        <time>2017-01-11T13:43:21Z</time>
      </trkpt>
      <trkpt lat="43.60905" lon="6.31005">
        <ele>754</ele>
        <time>2017-01-11T13:43:22Z</time>
      </trkpt>
      <trkpt lat="43.60919" lon="6.31019">
        <ele>757.2</ele>
        <time>2017-01-11T13:43:50Z</time>
      </trkpt>
      <trkpt lat="43.60927" lon="6.31019">
        <ele>758.2</ele>
        <time>2017-01-11T13:43:59Z</time>
      </trkpt>
      <trkpt lat="43.60934" lon="6.31014">
        <ele>759.2</ele>
        <time>2017-01-11T13:44:09Z</time>
      </trkpt>
      <trkpt lat="43.60941" lon="6.31007">
        <ele>760.1</ele>
        <time>2017-01-11T13:44:17Z</time>
      </trkpt>
      <trkpt lat="43.60947" lon="6.30999">
        <ele>760.5</ele>
        <time>2017-01-11T13:44:25Z</time>
      </trkpt>
      <trkpt lat="43.60948" lon="6.30998">
        <ele>760.5</ele>
        <time>2017-01-11T13:44:26Z</time>
      </trkpt>
      <trkpt lat="43.60955" lon="6.30977">
        <ele>760.8</ele>
        <time>2017-01-11T13:44:47Z</time>
      </trkpt>
      <trkpt lat="43.6096" lon="6.30968">
        <ele>760.7</ele>
        <time>2017-01-11T13:44:55Z</time>
      </trkpt>
      <trkpt lat="43.60965" lon="6.30959">
        <ele>760</ele>
        <time>2017-01-11T13:45:05Z</time>
      </trkpt>
      <trkpt lat="43.60971" lon="6.30951">
        <ele>758.6</ele>
        <time>2017-01-11T13:45:16Z</time>
      </trkpt>
      <trkpt lat="43.60979" lon="6.30945">
        <ele>757.6</ele>
        <time>2017-01-11T13:45:25Z</time>
      </trkpt>
      <trkpt lat="43.60987" lon="6.3094">
        <ele>755.1</ele>
        <time>2017-01-11T13:45:48Z</time>
      </trkpt>
      <trkpt lat="43.60987" lon="6.30939">
        <ele>755</ele>
        <time>2017-01-11T13:45:49Z</time>
      </trkpt>
      <trkpt lat="43.60992" lon="6.30917">
        <ele>754.6</ele>
        <time>2017-01-11T13:46:09Z</time>
      </trkpt>
      <trkpt lat="43.60992" lon="6.30905">
        <ele>754.1</ele>
        <time>2017-01-11T13:46:19Z</time>
      </trkpt>
      <trkpt lat="43.60992" lon="6.30893">
        <ele>753.3</ele>
        <time>2017-01-11T13:46:29Z</time>
      </trkpt>
      <trkpt lat="43.60993" lon="6.30881">
        <ele>752.3</ele>
        <time>2017-01-11T13:46:38Z</time>
      </trkpt>
      <trkpt lat="43.60993" lon="6.30869">
        <ele>751.4</ele>
        <time>2017-01-11T13:46:47Z</time>
      </trkpt>
      <trkpt lat="43.60994" lon="6.30857">
        <ele>750.6</ele>
        <time>2017-01-11T13:46:55Z</time>
      </trkpt>
      <trkpt lat="43.60994" lon="6.30856">
        <ele>750.5</ele>
        <time>2017-01-11T13:46:56Z</time>
      </trkpt>
      <trkpt lat="43.60997" lon="6.30835">
        <ele>749</ele>
        <time>2017-01-11T13:47:09Z</time>
      </trkpt>
      <trkpt lat="43.60998" lon="6.30823">
        <ele>748.3</ele>
        <time>2017-01-11T13:47:17Z</time>
      </trkpt>
      <trkpt lat="43.61" lon="6.30812">
        <ele>748</ele>
        <time>2017-01-11T13:47:25Z</time>
      </trkpt>
      <trkpt lat="43.61006" lon="6.30803">
        <ele>747.9</ele>
        <time>2017-01-11T13:47:33Z</time>
      </trkpt>
      <trkpt lat="43.61014" lon="6.30802">
        <ele>747.9</ele>
        <time>2017-01-11T13:47:43Z</time>
      </trkpt>
      <trkpt lat="43.61023" lon="6.30803">
        <ele>747.2</ele>
        <time>2017-01-11T13:47:52Z</time>
      </trkpt>
      <trkpt lat="43.61031" lon="6.30805">
        <ele>746.7</ele>
        <time>2017-01-11T13:48:00Z</time>
      </trkpt>
      <trkpt lat="43.61032" lon="6.30805">
        <ele>746.6</ele>
        <time>2017-01-11T13:48:01Z</time>
      </trkpt>
      <trkpt lat="43.61047" lon="6.30811">
        <ele>746</ele>
        <time>2017-01-11T13:48:15Z</time>
      </trkpt>
      <trkpt lat="43.61055" lon="6.30817">
        <ele>745.7</ele>
        <time>2017-01-11T13:48:23Z</time>
      </trkpt>
      <trkpt lat="43.61061" lon="6.30826">
        <ele>745</ele>
        <time>2017-01-11T13:48:32Z</time>
      </trkpt>
      <trkpt lat="43.61065" lon="6.30836">
        <ele>744.5</ele>
        <time>2017-01-11T13:48:40Z</time>
      </trkpt>
      <trkpt lat="43.6107" lon="6.30845">
        <ele>744</ele>
        <time>2017-01-11T13:48:48Z</time>
      </trkpt>
      <trkpt lat="43.61076" lon="6.30853">
        <ele>743</ele>
        <time>2017-01-11T13:48:56Z</time>
      </trkpt>
      <trkpt lat="43.61084" lon="6.30858">
        <ele>742.4</ele>
        <time>2017-01-11T13:49:05Z</time>
      </trkpt>
      <trkpt lat="43.61085" lon="6.30859">
        <ele>742.4</ele>
        <time>2017-01-11T13:49:06Z</time>
      </trkpt>
      <trkpt lat="43.61101" lon="6.30865">
        <ele>740.9</ele>
        <time>2017-01-11T13:49:20Z</time>
      </trkpt>
      <trkpt lat="43.61109" lon="6.30865">
        <ele>740.2</ele>
        <time>2017-01-11T13:49:27Z</time>
      </trkpt>
      <trkpt lat="43.61118" lon="6.30864">
        <ele>739.6</ele>
        <time>2017-01-11T13:49:34Z</time>
      </trkpt>
      <trkpt lat="43.61126" lon="6.30863">
        <ele>739.4</ele>
        <time>2017-01-11T13:49:41Z</time>
      </trkpt>
      <trkpt lat="43.61135" lon="6.30862">
        <ele>739.4</ele>
        <time>2017-01-11T13:49:48Z</time>
      </trkpt>
      <trkpt lat="43.61143" lon="6.30861">
        <ele>739.6</ele>
        <time>2017-01-11T13:49:54Z</time>
      </trkpt>
      <trkpt lat="43.6115" lon="6.30862">
        <ele>739.7</ele>
        <time>2017-01-11T13:50:00Z</time>
      </trkpt>
      <trkpt lat="43.61159" lon="6.30863">
        <ele>739.6</ele>
        <time>2017-01-11T13:50:07Z</time>
      </trkpt>
      <trkpt lat="43.6116" lon="6.30863">
        <ele>739.5</ele>
        <time>2017-01-11T13:50:08Z</time>
      </trkpt>
      <trkpt lat="43.61176" lon="6.30865">
        <ele>738.8</ele>
        <time>2017-01-11T13:50:21Z</time>
      </trkpt>
      <trkpt lat="43.61184" lon="6.30865">
        <ele>737.9</ele>
        <time>2017-01-11T13:50:28Z</time>
      </trkpt>
      <trkpt lat="43.61192" lon="6.30862">
        <ele>737.3</ele>
        <time>2017-01-11T13:50:37Z</time>
      </trkpt>
      <trkpt lat="43.61201" lon="6.30864">
        <ele>736.7</ele>
        <time>2017-01-11T13:50:47Z</time>
      </trkpt>
      <trkpt lat="43.61209" lon="6.3087">
        <ele>736.3</ele>
        <time>2017-01-11T13:50:56Z</time>
      </trkpt>
      <trkpt lat="43.61217" lon="6.30872">
        <ele>735.7</ele>
        <time>2017-01-11T13:51:05Z</time>
      </trkpt>
      <trkpt lat="43.61226" lon="6.3087">
        <ele>734.6</ele>
        <time>2017-01-11T13:51:14Z</time>
      </trkpt>
      <trkpt lat="43.61226" lon="6.3087">
        <ele>734.4</ele>
        <time>2017-01-11T13:51:15Z</time>
      </trkpt>
      <trkpt lat="43.61242" lon="6.30873">
        <ele>732.4</ele>
        <time>2017-01-11T13:51:31Z</time>
      </trkpt>
      <trkpt lat="43.61251" lon="6.30875">
        <ele>731.6</ele>
        <time>2017-01-11T13:51:40Z</time>
      </trkpt>
      <trkpt lat="43.61259" lon="6.30879">
        <ele>731.2</ele>
        <time>2017-01-11T13:51:48Z</time>
      </trkpt>
      <trkpt lat="43.61268" lon="6.30882">
        <ele>731.5</ele>
        <time>2017-01-11T13:51:58Z</time>
      </trkpt>
      <trkpt lat="43.61276" lon="6.30886">
        <ele>732.1</ele>
        <time>2017-01-11T13:52:07Z</time>
      </trkpt>
      <trkpt lat="43.61283" lon="6.30893">
        <ele>733.1</ele>
        <time>2017-01-11T13:52:15Z</time>
      </trkpt>
      <trkpt lat="43.61284" lon="6.30894">
        <ele>733.2</ele>
        <time>2017-01-11T13:52:16Z</time>
      </trkpt>
      <trkpt lat="43.61297" lon="6.30904">
        <ele>734.7</ele>
        <time>2017-01-11T13:52:29Z</time>
      </trkpt>
      <trkpt lat="43.61304" lon="6.3091">
        <ele>735.1</ele>
        <time>2017-01-11T13:52:36Z</time>
      </trkpt>
      <trkpt lat="43.61311" lon="6.30915">
        <ele>735.4</ele>
        <time>2017-01-11T13:52:43Z</time>
      </trkpt>
      <trkpt lat="43.61319" lon="6.30918">
        <ele>735.5</ele>
        <time>2017-01-11T13:52:52Z</time>
      </trkpt>
      <trkpt lat="43.61327" lon="6.30917">
        <ele>736.1</ele>
        <time>2017-01-11T13:53:01Z</time>
      </trkpt>
      <trkpt lat="43.61335" lon="6.30918">
        <ele>736.5</ele>
        <time>2017-01-11T13:53:07Z</time>
      </trkpt>
      <trkpt lat="43.61343" lon="6.30917">
        <ele>736.9</ele>
        <time>2017-01-11T13:53:13Z</time>
      </trkpt>
      <trkpt lat="43.61351" lon="6.30916">
        <ele>737.4</ele>
        <time>2017-01-11T13:53:20Z</time>
      </trkpt>
      <trkpt lat="43.61353" lon="6.30916">
        <ele>737.5</ele>
        <time>2017-01-11T13:53:21Z</time>
      </trkpt>
      <trkpt lat="43.61368" lon="6.30912">
        <ele>738.3</ele>
        <time>2017-01-11T13:53:34Z</time>
      </trkpt>
      <trkpt lat="43.61376" lon="6.30909">
        <ele>738.7</ele>
        <time>2017-01-11T13:53:42Z</time>
      </trkpt>
      <trkpt lat="43.61385" lon="6.30905">
        <ele>739.6</ele>
        <time>2017-01-11T13:54:11Z</time>
      </trkpt>
      <trkpt lat="43.61389" lon="6.30915">
        <ele>738.3</ele>
        <time>2017-01-11T13:57:55Z</time>
      </trkpt>
      <trkpt lat="43.61389" lon="6.30917">
        <ele>738.3</ele>
        <time>2017-01-11T13:57:56Z</time>
      </trkpt>
      <trkpt lat="43.61394" lon="6.30938">
        <ele>738.5</ele>
        <time>2017-01-11T13:58:12Z</time>
      </trkpt>
      <trkpt lat="43.61397" lon="6.30949">
        <ele>738.5</ele>
        <time>2017-01-11T13:58:19Z</time>
      </trkpt>
      <trkpt lat="43.61401" lon="6.3096">
        <ele>738.6</ele>
        <time>2017-01-11T13:58:26Z</time>
      </trkpt>
      <trkpt lat="43.61407" lon="6.30968">
        <ele>738.8</ele>
        <time>2017-01-11T13:58:35Z</time>
      </trkpt>
      <trkpt lat="43.61415" lon="6.30972">
        <ele>739.3</ele>
        <time>2017-01-11T13:58:44Z</time>
      </trkpt>
      <trkpt lat="43.61423" lon="6.30972">
        <ele>740</ele>
        <time>2017-01-11T13:58:51Z</time>
      </trkpt>
      <trkpt lat="43.61432" lon="6.30971">
        <ele>740.9</ele>
        <time>2017-01-11T13:59:02Z</time>
      </trkpt>
      <trkpt lat="43.61433" lon="6.30972">
        <ele>741</ele>
        <time>2017-01-11T13:59:03Z</time>
      </trkpt>
      <trkpt lat="43.61448" lon="6.30977">
        <ele>743.4</ele>
        <time>2017-01-11T13:59:23Z</time>
      </trkpt>
      <trkpt lat="43.61457" lon="6.30982">
        <ele>744.8</ele>
        <time>2017-01-11T13:59:34Z</time>
      </trkpt>
      <trkpt lat="43.61465" lon="6.30984">
        <ele>745.9</ele>
        <time>2017-01-11T13:59:45Z</time>
      </trkpt>
      <trkpt lat="43.61474" lon="6.30982">
        <ele>746.8</ele>
        <time>2017-01-11T13:59:55Z</time>
      </trkpt>
      <trkpt lat="43.6148" lon="6.30973">
        <ele>747.9</ele>
        <time>2017-01-11T14:00:04Z</time>
      </trkpt>
      <trkpt lat="43.61481" lon="6.30972">
        <ele>748.1</ele>
        <time>2017-01-11T14:00:05Z</time>
      </trkpt>
      <trkpt lat="43.61492" lon="6.30956">
        <ele>749.5</ele>
        <time>2017-01-11T14:00:24Z</time>
      </trkpt>
      <trkpt lat="43.61495" lon="6.30944">
        <ele>750.2</ele>
        <time>2017-01-11T14:00:34Z</time>
      </trkpt>
      <trkpt lat="43.61499" lon="6.30935">
        <ele>750.5</ele>
        <time>2017-01-11T14:00:42Z</time>
      </trkpt>
      <trkpt lat="43.61504" lon="6.30926">
        <ele>750.1</ele>
        <time>2017-01-11T14:00:51Z</time>
      </trkpt>
      <trkpt lat="43.61508" lon="6.30916">
        <ele>749.4</ele>
        <time>2017-01-11T14:01:02Z</time>
      </trkpt>
      <trkpt lat="43.61515" lon="6.30909">
        <ele>749.2</ele>
        <time>2017-01-11T14:01:10Z</time>
      </trkpt>
      <trkpt lat="43.61516" lon="6.30908">
        <ele>749.2</ele>
        <time>2017-01-11T14:01:11Z</time>
      </trkpt>
      <trkpt lat="43.61526" lon="6.3089">
        <ele>750.2</ele>
        <time>2017-01-11T14:01:27Z</time>
      </trkpt>
      <trkpt lat="43.61531" lon="6.30881">
        <ele>750.8</ele>
        <time>2017-01-11T14:01:35Z</time>
      </trkpt>
      <trkpt lat="43.61537" lon="6.30872">
        <ele>751.4</ele>
        <time>2017-01-11T14:01:43Z</time>
      </trkpt>
      <trkpt lat="43.61543" lon="6.30863">
        <ele>752.2</ele>
        <time>2017-01-11T14:01:53Z</time>
      </trkpt>
      <trkpt lat="43.61547" lon="6.30852">
        <ele>753</ele>
        <time>2017-01-11T14:02:02Z</time>
      </trkpt>
      <trkpt lat="43.6155" lon="6.30841">
        <ele>753.7</ele>
        <time>2017-01-11T14:02:12Z</time>
      </trkpt>
      <trkpt lat="43.61551" lon="6.3084">
        <ele>753.7</ele>
        <time>2017-01-11T14:02:13Z</time>
      </trkpt>
      <trkpt lat="43.61565" lon="6.30834">
        <ele>755</ele>
        <time>2017-01-11T14:02:34Z</time>
      </trkpt>
      <trkpt lat="43.6157" lon="6.30845">
        <ele>756.4</ele>
        <time>2017-01-11T14:02:47Z</time>
      </trkpt>
      <trkpt lat="43.61572" lon="6.30857">
        <ele>756.9</ele>
        <time>2017-01-11T14:03:00Z</time>
      </trkpt>
      <trkpt lat="43.61576" lon="6.30866">
        <ele>757.1</ele>
        <time>2017-01-11T14:03:09Z</time>
      </trkpt>
      <trkpt lat="43.61583" lon="6.30873">
        <ele>758.1</ele>
        <time>2017-01-11T14:03:20Z</time>
      </trkpt>
      <trkpt lat="43.61583" lon="6.30874">
        <ele>758.2</ele>
        <time>2017-01-11T14:03:21Z</time>
      </trkpt>
      <trkpt lat="43.61595" lon="6.30888">
        <ele>760.3</ele>
        <time>2017-01-11T14:03:40Z</time>
      </trkpt>
      <trkpt lat="43.61602" lon="6.30894">
        <ele>761.2</ele>
        <time>2017-01-11T14:03:49Z</time>
      </trkpt>
      <trkpt lat="43.6161" lon="6.30898">
        <ele>761.9</ele>
        <time>2017-01-11T14:03:57Z</time>
      </trkpt>
      <trkpt lat="43.61619" lon="6.30899">
        <ele>763.4</ele>
        <time>2017-01-11T14:04:07Z</time>
      </trkpt>
      <trkpt lat="43.61628" lon="6.309">
        <ele>764.3</ele>
        <time>2017-01-11T14:04:17Z</time>
      </trkpt>
      <trkpt lat="43.61636" lon="6.30899">
        <ele>765.8</ele>
        <time>2017-01-11T14:04:32Z</time>
      </trkpt>
      <trkpt lat="43.61637" lon="6.30899">
        <ele>766</ele>
        <time>2017-01-11T14:04:33Z</time>
      </trkpt>
      <trkpt lat="43.61653" lon="6.309">
        <ele>768.6</ele>
        <time>2017-01-11T14:04:52Z</time>
      </trkpt>
      <trkpt lat="43.61661" lon="6.30903">
        <ele>769.5</ele>
        <time>2017-01-11T14:05:01Z</time>
      </trkpt>
      <trkpt lat="43.61669" lon="6.30905">
        <ele>770.1</ele>
        <time>2017-01-11T14:05:10Z</time>
      </trkpt>
      <trkpt lat="43.61678" lon="6.30903">
        <ele>770.7</ele>
        <time>2017-01-11T14:05:19Z</time>
      </trkpt>
      <trkpt lat="43.61687" lon="6.30902">
        <ele>772.1</ele>
        <time>2017-01-11T14:05:30Z</time>
      </trkpt>
      <trkpt lat="43.61695" lon="6.30902">
        <ele>774.1</ele>
        <time>2017-01-11T14:05:44Z</time>
      </trkpt>
      <trkpt lat="43.61696" lon="6.30901">
        <ele>774.3</ele>
        <time>2017-01-11T14:05:45Z</time>
      </trkpt>
      <trkpt lat="43.61711" lon="6.30903">
        <ele>776.3</ele>
        <time>2017-01-11T14:06:04Z</time>
      </trkpt>
      <trkpt lat="43.61719" lon="6.30902">
        <ele>777</ele>
        <time>2017-01-11T14:06:11Z</time>
      </trkpt>
      <trkpt lat="43.61725" lon="6.30896">
        <ele>778</ele>
        <time>2017-01-11T14:06:19Z</time>
      </trkpt>
      <trkpt lat="43.61733" lon="6.30891">
        <ele>779.2</ele>
        <time>2017-01-11T14:06:29Z</time>
      </trkpt>
      <trkpt lat="43.61741" lon="6.30886">
        <ele>781.6</ele>
        <time>2017-01-11T14:06:45Z</time>
      </trkpt>
      <trkpt lat="43.61739" lon="6.30875">
        <ele>785.3</ele>
        <time>2017-01-11T14:07:09Z</time>
      </trkpt>
      <trkpt lat="43.61738" lon="6.30874">
        <ele>785.5</ele>
        <time>2017-01-11T14:07:10Z</time>
      </trkpt>
      <trkpt lat="43.61739" lon="6.30851">
        <ele>789.9</ele>
        <time>2017-01-11T14:07:47Z</time>
      </trkpt>
      <trkpt lat="43.61746" lon="6.30843">
        <ele>792.5</ele>
        <time>2017-01-11T14:08:04Z</time>
      </trkpt>
      <trkpt lat="43.61753" lon="6.30837">
        <ele>794.3</ele>
        <time>2017-01-11T14:08:17Z</time>
      </trkpt>
      <trkpt lat="43.61754" lon="6.30837">
        <ele>794.5</ele>
        <time>2017-01-11T14:08:18Z</time>
      </trkpt>
      <trkpt lat="43.61769" lon="6.30827">
        <ele>798.4</ele>
        <time>2017-01-11T14:08:41Z</time>
      </trkpt>
      <trkpt lat="43.61777" lon="6.30824">
        <ele>801.4</ele>
        <time>2017-01-11T14:08:57Z</time>
      </trkpt>
      <trkpt lat="43.61786" lon="6.30822">
        <ele>804.4</ele>
        <time>2017-01-11T14:09:13Z</time>
      </trkpt>
      <trkpt lat="43.61795" lon="6.30818">
        <ele>807.1</ele>
        <time>2017-01-11T14:09:29Z</time>
      </trkpt>
      <trkpt lat="43.61795" lon="6.30817">
        <ele>807.2</ele>
        <time>2017-01-11T14:09:30Z</time>
      </trkpt>
      <trkpt lat="43.61811" lon="6.30812">
        <ele>812.3</ele>
        <time>2017-01-11T14:09:59Z</time>
      </trkpt>
      <trkpt lat="43.6182" lon="6.30811">
        <ele>814.7</ele>
        <time>2017-01-11T14:10:16Z</time>
      </trkpt>
      <trkpt lat="43.61829" lon="6.30812">
        <ele>817.6</ele>
        <time>2017-01-11T14:10:33Z</time>
      </trkpt>
      <trkpt lat="43.61829" lon="6.30812">
        <ele>817.7</ele>
        <time>2017-01-11T14:10:34Z</time>
      </trkpt>
      <trkpt lat="43.61842" lon="6.30826">
        <ele>821.7</ele>
        <time>2017-01-11T14:10:58Z</time>
      </trkpt>
      <trkpt lat="43.61847" lon="6.30836">
        <ele>823.3</ele>
        <time>2017-01-11T14:11:10Z</time>
      </trkpt>
      <trkpt lat="43.61853" lon="6.30844">
        <ele>824.6</ele>
        <time>2017-01-11T14:11:21Z</time>
      </trkpt>
      <trkpt lat="43.6186" lon="6.30851">
        <ele>826.1</ele>
        <time>2017-01-11T14:11:32Z</time>
      </trkpt>
      <trkpt lat="43.61868" lon="6.30855">
        <ele>828.1</ele>
        <time>2017-01-11T14:11:43Z</time>
      </trkpt>
      <trkpt lat="43.61869" lon="6.30855">
        <ele>828.3</ele>
        <time>2017-01-11T14:11:44Z</time>
      </trkpt>
      <trkpt lat="43.61885" lon="6.30851">
        <ele>832.1</ele>
        <time>2017-01-11T14:12:09Z</time>
      </trkpt>
      <trkpt lat="43.61893" lon="6.3085">
        <ele>833.7</ele>
        <time>2017-01-11T14:12:19Z</time>
      </trkpt>
      <trkpt lat="43.61902" lon="6.3085">
        <ele>834.9</ele>
        <time>2017-01-11T14:12:29Z</time>
      </trkpt>
      <trkpt lat="43.6191" lon="6.3085">
        <ele>835.9</ele>
        <time>2017-01-11T14:12:43Z</time>
      </trkpt>
      <trkpt lat="43.61919" lon="6.30849">
        <ele>836.6</ele>
        <time>2017-01-11T14:12:57Z</time>
      </trkpt>
      <trkpt lat="43.6192" lon="6.30849">
        <ele>836.7</ele>
        <time>2017-01-11T14:12:58Z</time>
      </trkpt>
      <trkpt lat="43.61935" lon="6.3085">
        <ele>837.8</ele>
        <time>2017-01-11T14:13:13Z</time>
      </trkpt>
      <trkpt lat="43.61943" lon="6.30846">
        <ele>838.5</ele>
        <time>2017-01-11T14:13:22Z</time>
      </trkpt>
      <trkpt lat="43.61946" lon="6.30835">
        <ele>839.2</ele>
        <time>2017-01-11T14:13:34Z</time>
      </trkpt>
      <trkpt lat="43.61945" lon="6.30823">
        <ele>839.7</ele>
        <time>2017-01-11T14:13:45Z</time>
      </trkpt>
      <trkpt lat="43.61942" lon="6.30812">
        <ele>840</ele>
        <time>2017-01-11T14:13:53Z</time>
      </trkpt>
      <trkpt lat="43.61939" lon="6.30801">
        <ele>840.2</ele>
        <time>2017-01-11T14:14:02Z</time>
      </trkpt>
      <trkpt lat="43.61939" lon="6.308">
        <ele>840.2</ele>
        <time>2017-01-11T14:14:03Z</time>
      </trkpt>
      <trkpt lat="43.61946" lon="6.30781">
        <ele>840.6</ele>
        <time>2017-01-11T14:14:20Z</time>
      </trkpt>
      <trkpt lat="43.61951" lon="6.30771">
        <ele>841.2</ele>
        <time>2017-01-11T14:14:30Z</time>
      </trkpt>
      <trkpt lat="43.61955" lon="6.30761">
        <ele>841.7</ele>
        <time>2017-01-11T14:14:38Z</time>
      </trkpt>
      <trkpt lat="43.6196" lon="6.3075">
        <ele>841.9</ele>
        <time>2017-01-11T14:14:48Z</time>
      </trkpt>
      <trkpt lat="43.61965" lon="6.3074">
        <ele>842.4</ele>
        <time>2017-01-11T14:14:58Z</time>
      </trkpt>
      <trkpt lat="43.61972" lon="6.30733">
        <ele>843.5</ele>
        <time>2017-01-11T14:15:44Z</time>
      </trkpt>
      <trkpt lat="43.61972" lon="6.30733">
        <ele>843.5</ele>
        <time>2017-01-11T14:15:45Z</time>
      </trkpt>
      <trkpt lat="43.61971" lon="6.30721">
        <ele>845.7</ele>
        <time>2017-01-11T14:20:04Z</time>
      </trkpt>
      <trkpt lat="43.6197" lon="6.3072">
        <ele>845.7</ele>
        <time>2017-01-11T14:20:05Z</time>
      </trkpt>
      <trkpt lat="43.61962" lon="6.30702">
        <ele>845.6</ele>
        <time>2017-01-11T14:20:35Z</time>
      </trkpt>
      <trkpt lat="43.61958" lon="6.30691">
        <ele>845.5</ele>
        <time>2017-01-11T14:20:43Z</time>
      </trkpt>
      <trkpt lat="43.61954" lon="6.30681">
        <ele>845.5</ele>
        <time>2017-01-11T14:20:50Z</time>
      </trkpt>
      <trkpt lat="43.61952" lon="6.3067">
        <ele>845.6</ele>
        <time>2017-01-11T14:20:57Z</time>
      </trkpt>
      <trkpt lat="43.61952" lon="6.30659">
        <ele>845.6</ele>
        <time>2017-01-11T14:21:04Z</time>
      </trkpt>
      <trkpt lat="43.6195" lon="6.30648">
        <ele>845.5</ele>
        <time>2017-01-11T14:21:10Z</time>
      </trkpt>
      <trkpt lat="43.6195" lon="6.30647">
        <ele>845.5</ele>
        <time>2017-01-11T14:21:11Z</time>
      </trkpt>
      <trkpt lat="43.61943" lon="6.30625">
        <ele>846</ele>
        <time>2017-01-11T14:21:26Z</time>
      </trkpt>
      <trkpt lat="43.61939" lon="6.30614">
        <ele>846.2</ele>
        <time>2017-01-11T14:21:33Z</time>
      </trkpt>
      <trkpt lat="43.61937" lon="6.30603">
        <ele>846.4</ele>
        <time>2017-01-11T14:21:40Z</time>
      </trkpt>
      <trkpt lat="43.61935" lon="6.30592">
        <ele>846.9</ele>
        <time>2017-01-11T14:21:48Z</time>
      </trkpt>
      <trkpt lat="43.61934" lon="6.30581">
        <ele>847</ele>
        <time>2017-01-11T14:21:56Z</time>
      </trkpt>
      <trkpt lat="43.61932" lon="6.30569">
        <ele>847</ele>
        <time>2017-01-11T14:22:05Z</time>
      </trkpt>
      <trkpt lat="43.61931" lon="6.30558">
        <ele>847.6</ele>
        <time>2017-01-11T14:22:12Z</time>
      </trkpt>
      <trkpt lat="43.61931" lon="6.30556">
        <ele>847.4</ele>
        <time>2017-01-11T14:22:13Z</time>
      </trkpt>
      <trkpt lat="43.61933" lon="6.30535">
        <ele>847.6</ele>
        <time>2017-01-11T14:22:29Z</time>
      </trkpt>
      <trkpt lat="43.61936" lon="6.30524">
        <ele>847.5</ele>
        <time>2017-01-11T14:22:37Z</time>
      </trkpt>
      <trkpt lat="43.61938" lon="6.30513">
        <ele>847.2</ele>
        <time>2017-01-11T14:22:45Z</time>
      </trkpt>
      <trkpt lat="43.61939" lon="6.30501">
        <ele>847.1</ele>
        <time>2017-01-11T14:22:51Z</time>
      </trkpt>
      <trkpt lat="43.61942" lon="6.3049">
        <ele>846.7</ele>
        <time>2017-01-11T14:22:59Z</time>
      </trkpt>
      <trkpt lat="43.61941" lon="6.30477">
        <ele>846.2</ele>
        <time>2017-01-11T14:23:08Z</time>
      </trkpt>
      <trkpt lat="43.61942" lon="6.30465">
        <ele>845.9</ele>
        <time>2017-01-11T14:23:15Z</time>
      </trkpt>
      <trkpt lat="43.61942" lon="6.30463">
        <ele>845.9</ele>
        <time>2017-01-11T14:23:16Z</time>
      </trkpt>
      <trkpt lat="43.61941" lon="6.30442">
        <ele>844.9</ele>
        <time>2017-01-11T14:23:28Z</time>
      </trkpt>
      <trkpt lat="43.6194" lon="6.30431">
        <ele>844.3</ele>
        <time>2017-01-11T14:23:35Z</time>
      </trkpt>
      <trkpt lat="43.61939" lon="6.30419">
        <ele>843.7</ele>
        <time>2017-01-11T14:23:42Z</time>
      </trkpt>
      <trkpt lat="43.61937" lon="6.30407">
        <ele>843.4</ele>
        <time>2017-01-11T14:23:50Z</time>
      </trkpt>
      <trkpt lat="43.61934" lon="6.30396">
        <ele>843.4</ele>
        <time>2017-01-11T14:23:58Z</time>
      </trkpt>
      <trkpt lat="43.61927" lon="6.30389">
        <ele>843.1</ele>
        <time>2017-01-11T14:24:06Z</time>
      </trkpt>
      <trkpt lat="43.61919" lon="6.30384">
        <ele>842.5</ele>
        <time>2017-01-11T14:24:14Z</time>
      </trkpt>
      <trkpt lat="43.61913" lon="6.30377">
        <ele>842.2</ele>
        <time>2017-01-11T14:24:22Z</time>
      </trkpt>
      <trkpt lat="43.61912" lon="6.30376">
        <ele>842.2</ele>
        <time>2017-01-11T14:24:23Z</time>
      </trkpt>
      <trkpt lat="43.61906" lon="6.30356">
        <ele>842.2</ele>
        <time>2017-01-11T14:24:41Z</time>
      </trkpt>
      <trkpt lat="43.61902" lon="6.30346">
        <ele>842.5</ele>
        <time>2017-01-11T14:24:49Z</time>
      </trkpt>
      <trkpt lat="43.61901" lon="6.30335">
        <ele>843.3</ele>
        <time>2017-01-11T14:24:59Z</time>
      </trkpt>
      <trkpt lat="43.61904" lon="6.30323">
        <ele>844.3</ele>
        <time>2017-01-11T14:25:08Z</time>
      </trkpt>
      <trkpt lat="43.61907" lon="6.30312">
        <ele>845.5</ele>
        <time>2017-01-11T14:25:17Z</time>
      </trkpt>
      <trkpt lat="43.61908" lon="6.30301">
        <ele>845.9</ele>
        <time>2017-01-11T14:25:26Z</time>
      </trkpt>
      <trkpt lat="43.61908" lon="6.30299">
        <ele>846</ele>
        <time>2017-01-11T14:25:27Z</time>
      </trkpt>
      <trkpt lat="43.61917" lon="6.30282">
        <ele>847</ele>
        <time>2017-01-11T14:25:41Z</time>
      </trkpt>
      <trkpt lat="43.61924" lon="6.30276">
        <ele>847.3</ele>
        <time>2017-01-11T14:25:50Z</time>
      </trkpt>
      <trkpt lat="43.61929" lon="6.30266">
        <ele>846.9</ele>
        <time>2017-01-11T14:25:59Z</time>
      </trkpt>
      <trkpt lat="43.61933" lon="6.30258">
        <ele>846.8</ele>
        <time>2017-01-11T14:26:06Z</time>
      </trkpt>
      <trkpt lat="43.61938" lon="6.30249">
        <ele>846.7</ele>
        <time>2017-01-11T14:26:11Z</time>
      </trkpt>
      <trkpt lat="43.6194" lon="6.30237">
        <ele>846.7</ele>
        <time>2017-01-11T14:26:21Z</time>
      </trkpt>
      <trkpt lat="43.61941" lon="6.30226">
        <ele>847.1</ele>
        <time>2017-01-11T14:26:31Z</time>
      </trkpt>
      <trkpt lat="43.61941" lon="6.30225">
        <ele>847.1</ele>
        <time>2017-01-11T14:26:32Z</time>
      </trkpt>
      <trkpt lat="43.6194" lon="6.30203">
        <ele>847.5</ele>
        <time>2017-01-11T14:26:46Z</time>
      </trkpt>
      <trkpt lat="43.61942" lon="6.30191">
        <ele>847.8</ele>
        <time>2017-01-11T14:26:54Z</time>
      </trkpt>
      <trkpt lat="43.61942" lon="6.30181">
        <ele>848.1</ele>
        <time>2017-01-11T14:27:00Z</time>
      </trkpt>
      <trkpt lat="43.61941" lon="6.30169">
        <ele>848.5</ele>
        <time>2017-01-11T14:27:07Z</time>
      </trkpt>
      <trkpt lat="43.61939" lon="6.30158">
        <ele>848.9</ele>
        <time>2017-01-11T14:27:14Z</time>
      </trkpt>
      <trkpt lat="43.61936" lon="6.30146">
        <ele>849.5</ele>
        <time>2017-01-11T14:27:23Z</time>
      </trkpt>
      <trkpt lat="43.61932" lon="6.30136">
        <ele>850</ele>
        <time>2017-01-11T14:27:32Z</time>
      </trkpt>
      <trkpt lat="43.61932" lon="6.30134">
        <ele>850</ele>
        <time>2017-01-11T14:27:33Z</time>
      </trkpt>
      <trkpt lat="43.61923" lon="6.30116">
        <ele>851.1</ele>
        <time>2017-01-11T14:27:50Z</time>
      </trkpt>
      <trkpt lat="43.61919" lon="6.30104">
        <ele>851.3</ele>
        <time>2017-01-11T14:28:03Z</time>
      </trkpt>
      <trkpt lat="43.61918" lon="6.30093">
        <ele>850.1</ele>
        <time>2017-01-11T14:28:21Z</time>
      </trkpt>
      <trkpt lat="43.61918" lon="6.30081">
        <ele>848</ele>
        <time>2017-01-11T14:28:32Z</time>
      </trkpt>
      <trkpt lat="43.61918" lon="6.30069">
        <ele>847.3</ele>
        <time>2017-01-11T14:28:41Z</time>
      </trkpt>
      <trkpt lat="43.61918" lon="6.30068">
        <ele>847.3</ele>
        <time>2017-01-11T14:28:42Z</time>
      </trkpt>
      <trkpt lat="43.61924" lon="6.30047">
        <ele>848</ele>
        <time>2017-01-11T14:28:59Z</time>
      </trkpt>
      <trkpt lat="43.61927" lon="6.30036">
        <ele>848.7</ele>
        <time>2017-01-11T14:29:06Z</time>
      </trkpt>
      <trkpt lat="43.61929" lon="6.30024">
        <ele>849.5</ele>
        <time>2017-01-11T14:29:14Z</time>
      </trkpt>
      <trkpt lat="43.6193" lon="6.30013">
        <ele>850</ele>
        <time>2017-01-11T14:29:21Z</time>
      </trkpt>
      <trkpt lat="43.61932" lon="6.30003">
        <ele>850.4</ele>
        <time>2017-01-11T14:29:28Z</time>
      </trkpt>
      <trkpt lat="43.61933" lon="6.29991">
        <ele>850.9</ele>
        <time>2017-01-11T14:29:37Z</time>
      </trkpt>
      <trkpt lat="43.61934" lon="6.29979">
        <ele>852.2</ele>
        <time>2017-01-11T14:29:49Z</time>
      </trkpt>
      <trkpt lat="43.61935" lon="6.29978">
        <ele>852.4</ele>
        <time>2017-01-11T14:29:50Z</time>
      </trkpt>
      <trkpt lat="43.61941" lon="6.29957">
        <ele>856</ele>
        <time>2017-01-11T14:30:27Z</time>
      </trkpt>
      <trkpt lat="43.61946" lon="6.29946">
        <ele>857.6</ele>
        <time>2017-01-11T14:30:40Z</time>
      </trkpt>
      <trkpt lat="43.61947" lon="6.29934">
        <ele>859.4</ele>
        <time>2017-01-11T14:30:53Z</time>
      </trkpt>
      <trkpt lat="43.61947" lon="6.29933">
        <ele>859.5</ele>
        <time>2017-01-11T14:30:54Z</time>
      </trkpt>
      <trkpt lat="43.61945" lon="6.29911">
        <ele>862.3</ele>
        <time>2017-01-11T14:31:53Z</time>
      </trkpt>
      <trkpt lat="43.61946" lon="6.29899">
        <ele>862.4</ele>
        <time>2017-01-11T14:32:59Z</time>
      </trkpt>
      <trkpt lat="43.61946" lon="6.29898">
        <ele>862.4</ele>
        <time>2017-01-11T14:33:00Z</time>
      </trkpt>
      <trkpt lat="43.6194" lon="6.29877">
        <ele>860.4</ele>
        <time>2017-01-11T14:33:21Z</time>
      </trkpt>
      <trkpt lat="43.61941" lon="6.29866">
        <ele>859.1</ele>
        <time>2017-01-11T14:33:35Z</time>
      </trkpt>
      <trkpt lat="43.61944" lon="6.29855">
        <ele>857.8</ele>
        <time>2017-01-11T14:33:46Z</time>
      </trkpt>
      <trkpt lat="43.61948" lon="6.29844">
        <ele>856.7</ele>
        <time>2017-01-11T14:33:54Z</time>
      </trkpt>
      <trkpt lat="43.61949" lon="6.29832">
        <ele>856</ele>
        <time>2017-01-11T14:34:02Z</time>
      </trkpt>
      <trkpt lat="43.61949" lon="6.29831">
        <ele>856</ele>
        <time>2017-01-11T14:34:03Z</time>
      </trkpt>
      <trkpt lat="43.6195" lon="6.2981">
        <ele>856.9</ele>
        <time>2017-01-11T14:34:23Z</time>
      </trkpt>
      <trkpt lat="43.61954" lon="6.29799">
        <ele>857.7</ele>
        <time>2017-01-11T14:34:33Z</time>
      </trkpt>
      <trkpt lat="43.61957" lon="6.29789">
        <ele>858.8</ele>
        <time>2017-01-11T14:34:44Z</time>
      </trkpt>
      <trkpt lat="43.61961" lon="6.29778">
        <ele>859.8</ele>
        <time>2017-01-11T14:34:56Z</time>
      </trkpt>
      <trkpt lat="43.61967" lon="6.29769">
        <ele>861.7</ele>
        <time>2017-01-11T14:35:09Z</time>
      </trkpt>
      <trkpt lat="43.61967" lon="6.29768">
        <ele>861.9</ele>
        <time>2017-01-11T14:35:10Z</time>
      </trkpt>
      <trkpt lat="43.61983" lon="6.29759">
        <ele>866.7</ele>
        <time>2017-01-11T14:35:37Z</time>
      </trkpt>
      <trkpt lat="43.61991" lon="6.29756">
        <ele>869.8</ele>
        <time>2017-01-11T14:35:53Z</time>
      </trkpt>
      <trkpt lat="43.61999" lon="6.29752">
        <ele>872.5</ele>
        <time>2017-01-11T14:36:07Z</time>
      </trkpt>
      <trkpt lat="43.62007" lon="6.29748">
        <ele>875</ele>
        <time>2017-01-11T14:36:21Z</time>
      </trkpt>
      <trkpt lat="43.62008" lon="6.29747">
        <ele>875.2</ele>
        <time>2017-01-11T14:36:22Z</time>
      </trkpt>
      <trkpt lat="43.6202" lon="6.29732">
        <ele>878.3</ele>
        <time>2017-01-11T14:36:45Z</time>
      </trkpt>
      <trkpt lat="43.62025" lon="6.29722">
        <ele>879.9</ele>
        <time>2017-01-11T14:36:57Z</time>
      </trkpt>
      <trkpt lat="43.62028" lon="6.2971">
        <ele>881.7</ele>
        <time>2017-01-11T14:37:09Z</time>
      </trkpt>
      <trkpt lat="43.62029" lon="6.29698">
        <ele>883.5</ele>
        <time>2017-01-11T14:37:21Z</time>
      </trkpt>
      <trkpt lat="43.6203" lon="6.29686">
        <ele>884.9</ele>
        <time>2017-01-11T14:37:34Z</time>
      </trkpt>
      <trkpt lat="43.62029" lon="6.29685">
        <ele>885</ele>
        <time>2017-01-11T14:37:35Z</time>
      </trkpt>
      <trkpt lat="43.6203" lon="6.29662">
        <ele>886.5</ele>
        <time>2017-01-11T14:37:52Z</time>
      </trkpt>
      <trkpt lat="43.62023" lon="6.29654">
        <ele>887.3</ele>
        <time>2017-01-11T14:38:04Z</time>
      </trkpt>
      <trkpt lat="43.62017" lon="6.29645">
        <ele>888.2</ele>
        <time>2017-01-11T14:38:16Z</time>
      </trkpt>
      <trkpt lat="43.62014" lon="6.29634">
        <ele>889.3</ele>
        <time>2017-01-11T14:38:28Z</time>
      </trkpt>
      <trkpt lat="43.62013" lon="6.29622">
        <ele>890.6</ele>
        <time>2017-01-11T14:38:40Z</time>
      </trkpt>
      <trkpt lat="43.62013" lon="6.29621">
        <ele>890.7</ele>
        <time>2017-01-11T14:38:41Z</time>
      </trkpt>
      <trkpt lat="43.62008" lon="6.29599">
        <ele>893</ele>
        <time>2017-01-11T14:39:05Z</time>
      </trkpt>
      <trkpt lat="43.62005" lon="6.29588">
        <ele>894.4</ele>
        <time>2017-01-11T14:39:17Z</time>
      </trkpt>
      <trkpt lat="43.62006" lon="6.29576">
        <ele>895.6</ele>
        <time>2017-01-11T14:39:27Z</time>
      </trkpt>
      <trkpt lat="43.62008" lon="6.29564">
        <ele>896.7</ele>
        <time>2017-01-11T14:39:37Z</time>
      </trkpt>
      <trkpt lat="43.62013" lon="6.29554">
        <ele>897.6</ele>
        <time>2017-01-11T14:39:45Z</time>
      </trkpt>
      <trkpt lat="43.62014" lon="6.29553">
        <ele>897.7</ele>
        <time>2017-01-11T14:39:46Z</time>
      </trkpt>
      <trkpt lat="43.62026" lon="6.2954">
        <ele>898.9</ele>
        <time>2017-01-11T14:40:01Z</time>
      </trkpt>
      <trkpt lat="43.62034" lon="6.29537">
        <ele>898.7</ele>
        <time>2017-01-11T14:40:13Z</time>
      </trkpt>
      <trkpt lat="43.62042" lon="6.29536">
        <ele>898.3</ele>
        <time>2017-01-11T14:40:21Z</time>
      </trkpt>
      <trkpt lat="43.6205" lon="6.29534">
        <ele>897.9</ele>
        <time>2017-01-11T14:40:30Z</time>
      </trkpt>
      <trkpt lat="43.62057" lon="6.2953">
        <ele>897.5</ele>
        <time>2017-01-11T14:40:36Z</time>
      </trkpt>
      <trkpt lat="43.62064" lon="6.29522">
        <ele>897.3</ele>
        <time>2017-01-11T14:40:46Z</time>
      </trkpt>
      <trkpt lat="43.62064" lon="6.29521">
        <ele>897.3</ele>
        <time>2017-01-11T14:40:47Z</time>
      </trkpt>
      <trkpt lat="43.6207" lon="6.295">
        <ele>898.1</ele>
        <time>2017-01-11T14:41:12Z</time>
      </trkpt>
      <trkpt lat="43.62073" lon="6.2949">
        <ele>898.4</ele>
        <time>2017-01-11T14:41:21Z</time>
      </trkpt>
      <trkpt lat="43.62073" lon="6.29478">
        <ele>899.2</ele>
        <time>2017-01-11T14:41:30Z</time>
      </trkpt>
      <trkpt lat="43.62075" lon="6.29467">
        <ele>900</ele>
        <time>2017-01-11T14:41:37Z</time>
      </trkpt>
      <trkpt lat="43.62076" lon="6.29455">
        <ele>901.3</ele>
        <time>2017-01-11T14:41:47Z</time>
      </trkpt>
      <trkpt lat="43.62076" lon="6.29454">
        <ele>901.5</ele>
        <time>2017-01-11T14:41:48Z</time>
      </trkpt>
      <trkpt lat="43.62087" lon="6.29437">
        <ele>902.4</ele>
        <time>2017-01-11T14:42:06Z</time>
      </trkpt>
      <trkpt lat="43.62094" lon="6.29431">
        <ele>903</ele>
        <time>2017-01-11T14:42:19Z</time>
      </trkpt>
      <trkpt lat="43.62103" lon="6.29426">
        <ele>903.8</ele>
        <time>2017-01-11T14:43:08Z</time>
      </trkpt>
      <trkpt lat="43.62103" lon="6.29426">
        <ele>903.8</ele>
        <time>2017-01-11T14:43:09Z</time>
      </trkpt>
      <trkpt lat="43.62116" lon="6.29411">
        <ele>905.6</ele>
        <time>2017-01-11T14:43:42Z</time>
      </trkpt>
      <trkpt lat="43.62121" lon="6.29401">
        <ele>907</ele>
        <time>2017-01-11T14:43:56Z</time>
      </trkpt>
      <trkpt lat="43.62129" lon="6.29395">
        <ele>907.9</ele>
        <time>2017-01-11T14:44:04Z</time>
      </trkpt>
      <trkpt lat="43.62137" lon="6.29391">
        <ele>909.5</ele>
        <time>2017-01-11T14:44:25Z</time>
      </trkpt>
      <trkpt lat="43.62138" lon="6.29391">
        <ele>909.5</ele>
        <time>2017-01-11T14:44:26Z</time>
      </trkpt>
      <trkpt lat="43.62154" lon="6.29394">
        <ele>908.2</ele>
        <time>2017-01-11T14:44:51Z</time>
      </trkpt>
      <trkpt lat="43.62163" lon="6.29397">
        <ele>906.5</ele>
        <time>2017-01-11T14:46:08Z</time>
      </trkpt>
      <trkpt lat="43.62163" lon="6.29397">
        <ele>906.5</ele>
        <time>2017-01-11T14:46:09Z</time>
      </trkpt>
      <trkpt lat="43.62166" lon="6.29385">
        <ele>908.4</ele>
        <time>2017-01-11T14:48:22Z</time>
      </trkpt>
      <trkpt lat="43.62166" lon="6.29384">
        <ele>908.4</ele>
        <time>2017-01-11T14:48:23Z</time>
      </trkpt>
      <trkpt lat="43.62176" lon="6.29368">
        <ele>907.3</ele>
        <time>2017-01-11T14:48:47Z</time>
      </trkpt>
      <trkpt lat="43.62185" lon="6.29366">
        <ele>906</ele>
        <time>2017-01-11T14:48:58Z</time>
      </trkpt>
      <trkpt lat="43.62193" lon="6.2937">
        <ele>904.2</ele>
        <time>2017-01-11T14:49:12Z</time>
      </trkpt>
      <trkpt lat="43.62202" lon="6.29373">
        <ele>902.5</ele>
        <time>2017-01-11T14:49:20Z</time>
      </trkpt>
      <trkpt lat="43.62209" lon="6.2938">
        <ele>901.2</ele>
        <time>2017-01-11T14:49:32Z</time>
      </trkpt>
      <trkpt lat="43.6221" lon="6.29381">
        <ele>901.1</ele>
        <time>2017-01-11T14:49:33Z</time>
      </trkpt>
      <trkpt lat="43.6222" lon="6.29398">
        <ele>898.1</ele>
        <time>2017-01-11T14:51:44Z</time>
      </trkpt>
      <trkpt lat="43.62221" lon="6.29399">
        <ele>898.1</ele>
        <time>2017-01-11T14:51:45Z</time>
      </trkpt>
      <trkpt lat="43.62226" lon="6.29421">
        <ele>897.5</ele>
        <time>2017-01-11T14:52:06Z</time>
      </trkpt>
      <trkpt lat="43.62232" lon="6.2943">
        <ele>896.5</ele>
        <time>2017-01-11T14:52:20Z</time>
      </trkpt>
      <trkpt lat="43.62233" lon="6.29418">
        <ele>896.2</ele>
        <time>2017-01-11T14:52:40Z</time>
      </trkpt>
      <trkpt lat="43.62231" lon="6.29406">
        <ele>896.6</ele>
        <time>2017-01-11T14:52:50Z</time>
      </trkpt>
      <trkpt lat="43.62231" lon="6.29405">
        <ele>896.7</ele>
        <time>2017-01-11T14:52:51Z</time>
      </trkpt>
      <trkpt lat="43.62228" lon="6.29383">
        <ele>898.4</ele>
        <time>2017-01-11T14:53:11Z</time>
      </trkpt>
      <trkpt lat="43.62229" lon="6.29372">
        <ele>899.5</ele>
        <time>2017-01-11T14:53:24Z</time>
      </trkpt>
      <trkpt lat="43.62233" lon="6.29362">
        <ele>900.6</ele>
        <time>2017-01-11T14:53:32Z</time>
      </trkpt>
      <trkpt lat="43.62237" lon="6.29351">
        <ele>902.4</ele>
        <time>2017-01-11T14:53:45Z</time>
      </trkpt>
      <trkpt lat="43.62244" lon="6.29345">
        <ele>903</ele>
        <time>2017-01-11T14:53:51Z</time>
      </trkpt>
      <trkpt lat="43.62245" lon="6.29343">
        <ele>903.1</ele>
        <time>2017-01-11T14:53:52Z</time>
      </trkpt>
      <trkpt lat="43.62259" lon="6.29334">
        <ele>903.6</ele>
        <time>2017-01-11T14:54:07Z</time>
      </trkpt>
      <trkpt lat="43.62267" lon="6.29329">
        <ele>903.7</ele>
        <time>2017-01-11T14:54:16Z</time>
      </trkpt>
      <trkpt lat="43.62275" lon="6.29325">
        <ele>903.7</ele>
        <time>2017-01-11T14:54:25Z</time>
      </trkpt>
      <trkpt lat="43.62282" lon="6.2932">
        <ele>903.2</ele>
        <time>2017-01-11T14:54:37Z</time>
      </trkpt>
      <trkpt lat="43.62289" lon="6.29314">
        <ele>902.3</ele>
        <time>2017-01-11T14:54:46Z</time>
      </trkpt>
      <trkpt lat="43.62298" lon="6.29313">
        <ele>901.4</ele>
        <time>2017-01-11T14:54:56Z</time>
      </trkpt>
      <trkpt lat="43.62299" lon="6.29313">
        <ele>901.4</ele>
        <time>2017-01-11T14:54:57Z</time>
      </trkpt>
      <trkpt lat="43.62315" lon="6.2931">
        <ele>900.3</ele>
        <time>2017-01-11T14:55:13Z</time>
      </trkpt>
      <trkpt lat="43.62317" lon="6.29298">
        <ele>899.9</ele>
        <time>2017-01-11T14:55:26Z</time>
      </trkpt>
      <trkpt lat="43.62315" lon="6.29287">
        <ele>899.8</ele>
        <time>2017-01-11T14:55:39Z</time>
      </trkpt>
      <trkpt lat="43.6231" lon="6.29278">
        <ele>899.6</ele>
        <time>2017-01-11T14:55:47Z</time>
      </trkpt>
      <trkpt lat="43.62306" lon="6.29268">
        <ele>899.5</ele>
        <time>2017-01-11T14:55:56Z</time>
      </trkpt>
      <trkpt lat="43.62304" lon="6.29257">
        <ele>899.1</ele>
        <time>2017-01-11T14:56:06Z</time>
      </trkpt>
      <trkpt lat="43.62304" lon="6.29256">
        <ele>899.1</ele>
        <time>2017-01-11T14:56:07Z</time>
      </trkpt>
      <trkpt lat="43.62296" lon="6.29235">
        <ele>897.6</ele>
        <time>2017-01-11T14:56:26Z</time>
      </trkpt>
      <trkpt lat="43.62288" lon="6.2923">
        <ele>897.5</ele>
        <time>2017-01-11T14:56:37Z</time>
      </trkpt>
      <trkpt lat="43.62287" lon="6.29218">
        <ele>897</ele>
        <time>2017-01-11T14:56:50Z</time>
      </trkpt>
      <trkpt lat="43.62283" lon="6.29208">
        <ele>896.7</ele>
        <time>2017-01-11T14:56:58Z</time>
      </trkpt>
      <trkpt lat="43.62275" lon="6.29202">
        <ele>896.5</ele>
        <time>2017-01-11T14:57:06Z</time>
      </trkpt>
      <trkpt lat="43.62269" lon="6.29195">
        <ele>896.3</ele>
        <time>2017-01-11T14:57:17Z</time>
      </trkpt>
      <trkpt lat="43.62268" lon="6.29194">
        <ele>896.2</ele>
        <time>2017-01-11T14:57:18Z</time>
      </trkpt>
      <trkpt lat="43.62258" lon="6.29177">
        <ele>896.1</ele>
        <time>2017-01-11T14:57:48Z</time>
      </trkpt>
      <trkpt lat="43.6226" lon="6.29166">
        <ele>896.2</ele>
        <time>2017-01-11T14:58:37Z</time>
      </trkpt>
      <trkpt lat="43.6226" lon="6.29164">
        <ele>896.1</ele>
        <time>2017-01-11T14:58:38Z</time>
      </trkpt>
      <trkpt lat="43.62251" lon="6.29145">
        <ele>895</ele>
        <time>2017-01-11T14:59:05Z</time>
      </trkpt>
      <trkpt lat="43.62248" lon="6.29134">
        <ele>894</ele>
        <time>2017-01-11T14:59:18Z</time>
      </trkpt>
      <trkpt lat="43.62242" lon="6.29125">
        <ele>893</ele>
        <time>2017-01-11T14:59:28Z</time>
      </trkpt>
      <trkpt lat="43.62234" lon="6.29119">
        <ele>892.4</ele>
        <time>2017-01-11T14:59:42Z</time>
      </trkpt>
      <trkpt lat="43.62234" lon="6.29118">
        <ele>892.3</ele>
        <time>2017-01-11T14:59:43Z</time>
      </trkpt>
      <trkpt lat="43.62228" lon="6.29097">
        <ele>890.8</ele>
        <time>2017-01-11T15:00:02Z</time>
      </trkpt>
      <trkpt lat="43.62224" lon="6.29087">
        <ele>890.6</ele>
        <time>2017-01-11T15:00:10Z</time>
      </trkpt>
      <trkpt lat="43.62222" lon="6.29075">
        <ele>890.4</ele>
        <time>2017-01-11T15:00:20Z</time>
      </trkpt>
      <trkpt lat="43.62217" lon="6.29065">
        <ele>889.9</ele>
        <time>2017-01-11T15:00:33Z</time>
      </trkpt>
      <trkpt lat="43.62212" lon="6.29056">
        <ele>889.6</ele>
        <time>2017-01-11T15:00:41Z</time>
      </trkpt>
      <trkpt lat="43.62207" lon="6.29046">
        <ele>889.4</ele>
        <time>2017-01-11T15:00:50Z</time>
      </trkpt>
      <trkpt lat="43.62207" lon="6.29044">
        <ele>889.4</ele>
        <time>2017-01-11T15:00:51Z</time>
      </trkpt>
      <trkpt lat="43.62201" lon="6.29025">
        <ele>889.6</ele>
        <time>2017-01-11T15:01:08Z</time>
      </trkpt>
      <trkpt lat="43.62199" lon="6.29013">
        <ele>889.2</ele>
        <time>2017-01-11T15:01:18Z</time>
      </trkpt>
      <trkpt lat="43.62196" lon="6.29002">
        <ele>888.9</ele>
        <time>2017-01-11T15:01:28Z</time>
      </trkpt>
      <trkpt lat="43.62194" lon="6.28991">
        <ele>888.9</ele>
        <time>2017-01-11T15:01:35Z</time>
      </trkpt>
      <trkpt lat="43.62187" lon="6.28983">
        <ele>889.1</ele>
        <time>2017-01-11T15:01:44Z</time>
      </trkpt>
      <trkpt lat="43.6218" lon="6.28978">
        <ele>889.8</ele>
        <time>2017-01-11T15:01:56Z</time>
      </trkpt>
      <trkpt lat="43.62179" lon="6.28978">
        <ele>889.9</ele>
        <time>2017-01-11T15:01:57Z</time>
      </trkpt>
      <trkpt lat="43.62167" lon="6.28965">
        <ele>890.5</ele>
        <time>2017-01-11T15:02:14Z</time>
      </trkpt>
      <trkpt lat="43.62162" lon="6.28955">
        <ele>890.7</ele>
        <time>2017-01-11T15:02:24Z</time>
      </trkpt>
      <trkpt lat="43.62156" lon="6.28947">
        <ele>891</ele>
        <time>2017-01-11T15:02:30Z</time>
      </trkpt>
      <trkpt lat="43.62151" lon="6.28939">
        <ele>891.2</ele>
        <time>2017-01-11T15:02:36Z</time>
      </trkpt>
      <trkpt lat="43.62144" lon="6.28931">
        <ele>891.5</ele>
        <time>2017-01-11T15:02:44Z</time>
      </trkpt>
      <trkpt lat="43.62138" lon="6.28923">
        <ele>892.1</ele>
        <time>2017-01-11T15:02:52Z</time>
      </trkpt>
      <trkpt lat="43.62131" lon="6.28918">
        <ele>892.7</ele>
        <time>2017-01-11T15:03:01Z</time>
      </trkpt>
      <trkpt lat="43.6213" lon="6.28918">
        <ele>892.8</ele>
        <time>2017-01-11T15:03:02Z</time>
      </trkpt>
      <trkpt lat="43.62115" lon="6.28913">
        <ele>894.4</ele>
        <time>2017-01-11T15:03:21Z</time>
      </trkpt>
      <trkpt lat="43.62107" lon="6.28907">
        <ele>895.2</ele>
        <time>2017-01-11T15:03:33Z</time>
      </trkpt>
      <trkpt lat="43.621" lon="6.28902">
        <ele>895.5</ele>
        <time>2017-01-11T15:03:40Z</time>
      </trkpt>
      <trkpt lat="43.62094" lon="6.28893">
        <ele>895.8</ele>
        <time>2017-01-11T15:03:49Z</time>
      </trkpt>
      <trkpt lat="43.62088" lon="6.28885">
        <ele>896</ele>
        <time>2017-01-11T15:03:57Z</time>
      </trkpt>
      <trkpt lat="43.62088" lon="6.28873">
        <ele>895</ele>
        <time>2017-01-11T15:04:50Z</time>
      </trkpt>
      <trkpt lat="43.62089" lon="6.28873">
        <ele>894.9</ele>
        <time>2017-01-11T15:04:51Z</time>
      </trkpt>
      <trkpt lat="43.62104" lon="6.28865">
        <ele>893.5</ele>
        <time>2017-01-11T15:05:14Z</time>
      </trkpt>
      <trkpt lat="43.62112" lon="6.28859">
        <ele>892.4</ele>
        <time>2017-01-11T15:05:25Z</time>
      </trkpt>
      <trkpt lat="43.62117" lon="6.2885">
        <ele>892.1</ele>
        <time>2017-01-11T15:05:34Z</time>
      </trkpt>
      <trkpt lat="43.62119" lon="6.28838">
        <ele>891.6</ele>
        <time>2017-01-11T15:05:43Z</time>
      </trkpt>
      <trkpt lat="43.6212" lon="6.28827">
        <ele>891.6</ele>
        <time>2017-01-11T15:05:49Z</time>
      </trkpt>
      <trkpt lat="43.62123" lon="6.28818">
        <ele>891.8</ele>
        <time>2017-01-11T15:05:55Z</time>
      </trkpt>
      <trkpt lat="43.62124" lon="6.28816">
        <ele>891.9</ele>
        <time>2017-01-11T15:05:56Z</time>
      </trkpt>
      <trkpt lat="43.62137" lon="6.28804">
        <ele>891.5</ele>
        <time>2017-01-11T15:06:08Z</time>
      </trkpt>
      <trkpt lat="43.62144" lon="6.28799">
        <ele>891.6</ele>
        <time>2017-01-11T15:06:16Z</time>
      </trkpt>
      <trkpt lat="43.62152" lon="6.28793">
        <ele>892.1</ele>
        <time>2017-01-11T15:06:27Z</time>
      </trkpt>
      <trkpt lat="43.6216" lon="6.28788">
        <ele>892.7</ele>
        <time>2017-01-11T15:06:36Z</time>
      </trkpt>
      <trkpt lat="43.62168" lon="6.28783">
        <ele>893.7</ele>
        <time>2017-01-11T15:06:46Z</time>
      </trkpt>
      <trkpt lat="43.62173" lon="6.28773">
        <ele>894.4</ele>
        <time>2017-01-11T15:06:56Z</time>
      </trkpt>
      <trkpt lat="43.62173" lon="6.28772">
        <ele>894.4</ele>
        <time>2017-01-11T15:06:57Z</time>
      </trkpt>
      <trkpt lat="43.62179" lon="6.28753">
        <ele>895</ele>
        <time>2017-01-11T15:07:11Z</time>
      </trkpt>
      <trkpt lat="43.62183" lon="6.28742">
        <ele>895.4</ele>
        <time>2017-01-11T15:07:19Z</time>
      </trkpt>
      <trkpt lat="43.62187" lon="6.28732">
        <ele>895.7</ele>
        <time>2017-01-11T15:07:26Z</time>
      </trkpt>
      <trkpt lat="43.62191" lon="6.28722">
        <ele>896.1</ele>
        <time>2017-01-11T15:07:34Z</time>
      </trkpt>
      <trkpt lat="43.62195" lon="6.28711">
        <ele>896.4</ele>
        <time>2017-01-11T15:07:42Z</time>
      </trkpt>
      <trkpt lat="43.62199" lon="6.28701">
        <ele>896.7</ele>
        <time>2017-01-11T15:07:50Z</time>
      </trkpt>
      <trkpt lat="43.62206" lon="6.28694">
        <ele>897</ele>
        <time>2017-01-11T15:07:58Z</time>
      </trkpt>
      <trkpt lat="43.62207" lon="6.28694">
        <ele>897</ele>
        <time>2017-01-11T15:07:59Z</time>
      </trkpt>
      <trkpt lat="43.62223" lon="6.28691">
        <ele>899</ele>
        <time>2017-01-11T15:08:17Z</time>
      </trkpt>
      <trkpt lat="43.62232" lon="6.28688">
        <ele>900.4</ele>
        <time>2017-01-11T15:08:28Z</time>
      </trkpt>
      <trkpt lat="43.62241" lon="6.28687">
        <ele>902.1</ele>
        <time>2017-01-11T15:08:40Z</time>
      </trkpt>
      <trkpt lat="43.62249" lon="6.28684">
        <ele>903.5</ele>
        <time>2017-01-11T15:08:52Z</time>
      </trkpt>
      <trkpt lat="43.62257" lon="6.2868">
        <ele>904.2</ele>
        <time>2017-01-11T15:09:01Z</time>
      </trkpt>
      <trkpt lat="43.62258" lon="6.28679">
        <ele>904.4</ele>
        <time>2017-01-11T15:09:02Z</time>
      </trkpt>
      <trkpt lat="43.62269" lon="6.28662">
        <ele>905.3</ele>
        <time>2017-01-11T15:09:20Z</time>
      </trkpt>
      <trkpt lat="43.62274" lon="6.28652">
        <ele>905.3</ele>
        <time>2017-01-11T15:09:29Z</time>
      </trkpt>
      <trkpt lat="43.62276" lon="6.28641">
        <ele>905.6</ele>
        <time>2017-01-11T15:10:20Z</time>
      </trkpt>
      <trkpt lat="43.62277" lon="6.2864">
        <ele>905.6</ele>
        <time>2017-01-11T15:10:21Z</time>
      </trkpt>
      <trkpt lat="43.62283" lon="6.28619">
        <ele>904.1</ele>
        <time>2017-01-11T15:10:42Z</time>
      </trkpt>
      <trkpt lat="43.62283" lon="6.28608">
        <ele>903.4</ele>
        <time>2017-01-11T15:10:52Z</time>
      </trkpt>
      <trkpt lat="43.62284" lon="6.28596">
        <ele>902.6</ele>
        <time>2017-01-11T15:11:00Z</time>
      </trkpt>
      <trkpt lat="43.62282" lon="6.28586">
        <ele>901.8</ele>
        <time>2017-01-11T15:11:08Z</time>
      </trkpt>
      <trkpt lat="43.62279" lon="6.28575">
        <ele>900.6</ele>
        <time>2017-01-11T15:11:15Z</time>
      </trkpt>
      <trkpt lat="43.62275" lon="6.28565">
        <ele>899.8</ele>
        <time>2017-01-11T15:11:22Z</time>
      </trkpt>
      <trkpt lat="43.62275" lon="6.28563">
        <ele>899.7</ele>
        <time>2017-01-11T15:11:23Z</time>
      </trkpt>
      <trkpt lat="43.62268" lon="6.28543">
        <ele>899.2</ele>
        <time>2017-01-11T15:11:36Z</time>
      </trkpt>
      <trkpt lat="43.62264" lon="6.28534">
        <ele>899.2</ele>
        <time>2017-01-11T15:11:43Z</time>
      </trkpt>
      <trkpt lat="43.62258" lon="6.28526">
        <ele>899</ele>
        <time>2017-01-11T15:11:51Z</time>
      </trkpt>
      <trkpt lat="43.6225" lon="6.28523">
        <ele>898.5</ele>
        <time>2017-01-11T15:11:59Z</time>
      </trkpt>
      <trkpt lat="43.62241" lon="6.28519">
        <ele>896.8</ele>
        <time>2017-01-11T15:12:11Z</time>
      </trkpt>
      <trkpt lat="43.62234" lon="6.28514">
        <ele>896.1</ele>
        <time>2017-01-11T15:12:18Z</time>
      </trkpt>
      <trkpt lat="43.62227" lon="6.28507">
        <ele>895.2</ele>
        <time>2017-01-11T15:12:25Z</time>
      </trkpt>
      <trkpt lat="43.62226" lon="6.28506">
        <ele>895.1</ele>
        <time>2017-01-11T15:12:26Z</time>
      </trkpt>
      <trkpt lat="43.62215" lon="6.28492">
        <ele>893.9</ele>
        <time>2017-01-11T15:12:40Z</time>
      </trkpt>
      <trkpt lat="43.6221" lon="6.28482">
        <ele>894</ele>
        <time>2017-01-11T15:12:48Z</time>
      </trkpt>
      <trkpt lat="43.6221" lon="6.2847">
        <ele>894.7</ele>
        <time>2017-01-11T15:12:58Z</time>
      </trkpt>
      <trkpt lat="43.62217" lon="6.28465">
        <ele>895.4</ele>
        <time>2017-01-11T15:13:09Z</time>
      </trkpt>
      <trkpt lat="43.62226" lon="6.28466">
        <ele>896.5</ele>
        <time>2017-01-11T15:13:18Z</time>
      </trkpt>
      <trkpt lat="43.62234" lon="6.28467">
        <ele>897.8</ele>
        <time>2017-01-11T15:13:32Z</time>
      </trkpt>
      <trkpt lat="43.62235" lon="6.28467">
        <ele>897.9</ele>
        <time>2017-01-11T15:13:33Z</time>
      </trkpt>
      <trkpt lat="43.62248" lon="6.28455">
        <ele>898.1</ele>
        <time>2017-01-11T15:13:55Z</time>
      </trkpt>
      <trkpt lat="43.62244" lon="6.28445">
        <ele>896.2</ele>
        <time>2017-01-11T15:14:25Z</time>
      </trkpt>
      <trkpt lat="43.62236" lon="6.28439">
        <ele>894.3</ele>
        <time>2017-01-11T15:14:41Z</time>
      </trkpt>
      <trkpt lat="43.62235" lon="6.28439">
        <ele>894.2</ele>
        <time>2017-01-11T15:14:42Z</time>
      </trkpt>
      <trkpt lat="43.62223" lon="6.28425">
        <ele>892.7</ele>
        <time>2017-01-11T15:14:55Z</time>
      </trkpt>
      <trkpt lat="43.62219" lon="6.28414">
        <ele>892</ele>
        <time>2017-01-11T15:15:04Z</time>
      </trkpt>
      <trkpt lat="43.62212" lon="6.28406">
        <ele>891.5</ele>
        <time>2017-01-11T15:15:11Z</time>
      </trkpt>
      <trkpt lat="43.62204" lon="6.284">
        <ele>891.2</ele>
        <time>2017-01-11T15:15:19Z</time>
      </trkpt>
      <trkpt lat="43.62197" lon="6.28396">
        <ele>891</ele>
        <time>2017-01-11T15:15:25Z</time>
      </trkpt>
      <trkpt lat="43.62188" lon="6.28394">
        <ele>890.7</ele>
        <time>2017-01-11T15:15:33Z</time>
      </trkpt>
      <trkpt lat="43.6218" lon="6.28393">
        <ele>890.6</ele>
        <time>2017-01-11T15:15:44Z</time>
      </trkpt>
      <trkpt lat="43.62179" lon="6.28393">
        <ele>890.6</ele>
        <time>2017-01-11T15:15:45Z</time>
      </trkpt>
      <trkpt lat="43.62164" lon="6.28384">
        <ele>889.5</ele>
        <time>2017-01-11T15:16:03Z</time>
      </trkpt>
      <trkpt lat="43.62157" lon="6.28377">
        <ele>888.6</ele>
        <time>2017-01-11T15:16:09Z</time>
      </trkpt>
      <trkpt lat="43.62152" lon="6.28369">
        <ele>887.5</ele>
        <time>2017-01-11T15:16:16Z</time>
      </trkpt>
      <trkpt lat="43.62146" lon="6.2836">
        <ele>886.6</ele>
        <time>2017-01-11T15:16:23Z</time>
      </trkpt>
      <trkpt lat="43.6214" lon="6.28351">
        <ele>885.9</ele>
        <time>2017-01-11T15:16:30Z</time>
      </trkpt>
      <trkpt lat="43.62135" lon="6.28342">
        <ele>885.4</ele>
        <time>2017-01-11T15:16:38Z</time>
      </trkpt>
      <trkpt lat="43.6213" lon="6.28332">
        <ele>885.1</ele>
        <time>2017-01-11T15:16:46Z</time>
      </trkpt>
      <trkpt lat="43.6213" lon="6.28331">
        <ele>885.2</ele>
        <time>2017-01-11T15:16:47Z</time>
      </trkpt>
      <trkpt lat="43.6212" lon="6.28313">
        <ele>884.3</ele>
        <time>2017-01-11T15:17:02Z</time>
      </trkpt>
      <trkpt lat="43.62114" lon="6.28305">
        <ele>883.7</ele>
        <time>2017-01-11T15:17:12Z</time>
      </trkpt>
      <trkpt lat="43.62106" lon="6.28302">
        <ele>882.9</ele>
        <time>2017-01-11T15:17:20Z</time>
      </trkpt>
      <trkpt lat="43.62098" lon="6.283">
        <ele>882.4</ele>
        <time>2017-01-11T15:17:28Z</time>
      </trkpt>
      <trkpt lat="43.62089" lon="6.28299">
        <ele>882.1</ele>
        <time>2017-01-11T15:17:35Z</time>
      </trkpt>
      <trkpt lat="43.62081" lon="6.28299">
        <ele>881.8</ele>
        <time>2017-01-11T15:17:43Z</time>
      </trkpt>
      <trkpt lat="43.62073" lon="6.283">
        <ele>881.6</ele>
        <time>2017-01-11T15:17:52Z</time>
      </trkpt>
      <trkpt lat="43.62072" lon="6.283">
        <ele>881.6</ele>
        <time>2017-01-11T15:17:53Z</time>
      </trkpt>
      <trkpt lat="43.62057" lon="6.28308">
        <ele>881.6</ele>
        <time>2017-01-11T15:18:07Z</time>
      </trkpt>
      <trkpt lat="43.6205" lon="6.28315">
        <ele>881.8</ele>
        <time>2017-01-11T15:18:16Z</time>
      </trkpt>
      <trkpt lat="43.62042" lon="6.28318">
        <ele>881.5</ele>
        <time>2017-01-11T15:18:26Z</time>
      </trkpt>
      <trkpt lat="43.62033" lon="6.28317">
        <ele>880.9</ele>
        <time>2017-01-11T15:18:36Z</time>
      </trkpt>
      <trkpt lat="43.62026" lon="6.2831">
        <ele>879.6</ele>
        <time>2017-01-11T15:18:48Z</time>
      </trkpt>
      <trkpt lat="43.62019" lon="6.28304">
        <ele>878.2</ele>
        <time>2017-01-11T15:18:58Z</time>
      </trkpt>
      <trkpt lat="43.62018" lon="6.28303">
        <ele>878.1</ele>
        <time>2017-01-11T15:18:59Z</time>
      </trkpt>
      <trkpt lat="43.62003" lon="6.28295">
        <ele>876.5</ele>
        <time>2017-01-11T15:19:11Z</time>
      </trkpt>
      <trkpt lat="43.61996" lon="6.2829">
        <ele>875.6</ele>
        <time>2017-01-11T15:19:18Z</time>
      </trkpt>
      <trkpt lat="43.61988" lon="6.28285">
        <ele>874.5</ele>
        <time>2017-01-11T15:19:26Z</time>
      </trkpt>
      <trkpt lat="43.61981" lon="6.28278">
        <ele>872.6</ele>
        <time>2017-01-11T15:19:36Z</time>
      </trkpt>
      <trkpt lat="43.61975" lon="6.2827">
        <ele>870.7</ele>
        <time>2017-01-11T15:19:47Z</time>
      </trkpt>
      <trkpt lat="43.61969" lon="6.28262">
        <ele>869.7</ele>
        <time>2017-01-11T15:19:57Z</time>
      </trkpt>
      <trkpt lat="43.6196" lon="6.28258">
        <ele>868.4</ele>
        <time>2017-01-11T15:20:07Z</time>
      </trkpt>
      <trkpt lat="43.61959" lon="6.28258">
        <ele>868.3</ele>
        <time>2017-01-11T15:20:08Z</time>
      </trkpt>
      <trkpt lat="43.61945" lon="6.28268">
        <ele>866.6</ele>
        <time>2017-01-11T15:20:23Z</time>
      </trkpt>
      <trkpt lat="43.61938" lon="6.28273">
        <ele>865.7</ele>
        <time>2017-01-11T15:20:30Z</time>
      </trkpt>
      <trkpt lat="43.6193" lon="6.28277">
        <ele>865.3</ele>
        <time>2017-01-11T15:20:39Z</time>
      </trkpt>
      <trkpt lat="43.61923" lon="6.28284">
        <ele>865.1</ele>
        <time>2017-01-11T15:20:48Z</time>
      </trkpt>
      <trkpt lat="43.61918" lon="6.28293">
        <ele>863.9</ele>
        <time>2017-01-11T15:20:57Z</time>
      </trkpt>
      <trkpt lat="43.61915" lon="6.28305">
        <ele>862.6</ele>
        <time>2017-01-11T15:21:07Z</time>
      </trkpt>
      <trkpt lat="43.61913" lon="6.28317">
        <ele>861.3</ele>
        <time>2017-01-11T15:21:17Z</time>
      </trkpt>
      <trkpt lat="43.61913" lon="6.28318">
        <ele>861.2</ele>
        <time>2017-01-11T15:21:18Z</time>
      </trkpt>
      <trkpt lat="43.61904" lon="6.28338">
        <ele>859.2</ele>
        <time>2017-01-11T15:21:38Z</time>
      </trkpt>
      <trkpt lat="43.61899" lon="6.28347">
        <ele>857.5</ele>
        <time>2017-01-11T15:21:50Z</time>
      </trkpt>
      <trkpt lat="43.61895" lon="6.28357">
        <ele>855.9</ele>
        <time>2017-01-11T15:22:01Z</time>
      </trkpt>
      <trkpt lat="43.61901" lon="6.28366">
        <ele>852.6</ele>
        <time>2017-01-11T15:22:19Z</time>
      </trkpt>
      <trkpt lat="43.61902" lon="6.28366">
        <ele>852.4</ele>
        <time>2017-01-11T15:22:20Z</time>
      </trkpt>
      <trkpt lat="43.61917" lon="6.28356">
        <ele>848.6</ele>
        <time>2017-01-11T15:22:48Z</time>
      </trkpt>
      <trkpt lat="43.61925" lon="6.28353">
        <ele>847.2</ele>
        <time>2017-01-11T15:23:03Z</time>
      </trkpt>
      <trkpt lat="43.61933" lon="6.28353">
        <ele>845.9</ele>
        <time>2017-01-11T15:23:18Z</time>
      </trkpt>
      <trkpt lat="43.61941" lon="6.28358">
        <ele>844.5</ele>
        <time>2017-01-11T15:23:30Z</time>
      </trkpt>
      <trkpt lat="43.61942" lon="6.28359">
        <ele>844.3</ele>
        <time>2017-01-11T15:23:31Z</time>
      </trkpt>
      <trkpt lat="43.61954" lon="6.28373">
        <ele>841.3</ele>
        <time>2017-01-11T15:23:55Z</time>
      </trkpt>
      <trkpt lat="43.6196" lon="6.28381">
        <ele>840.5</ele>
        <time>2017-01-11T15:24:04Z</time>
      </trkpt>
      <trkpt lat="43.61966" lon="6.28389">
        <ele>839.2</ele>
        <time>2017-01-11T15:24:15Z</time>
      </trkpt>
      <trkpt lat="43.61969" lon="6.284">
        <ele>837.3</ele>
        <time>2017-01-11T15:24:30Z</time>
      </trkpt>
      <trkpt lat="43.61964" lon="6.2841">
        <ele>834.8</ele>
        <time>2017-01-11T15:24:45Z</time>
      </trkpt>
      <trkpt lat="43.61964" lon="6.28411">
        <ele>834.6</ele>
        <time>2017-01-11T15:24:46Z</time>
      </trkpt>
      <trkpt lat="43.61948" lon="6.28417">
        <ele>830.6</ele>
        <time>2017-01-11T15:25:13Z</time>
      </trkpt>
      <trkpt lat="43.6194" lon="6.2842">
        <ele>829.2</ele>
        <time>2017-01-11T15:25:23Z</time>
      </trkpt>
      <trkpt lat="43.61933" lon="6.28427">
        <ele>826.9</ele>
        <time>2017-01-11T15:25:35Z</time>
      </trkpt>
      <trkpt lat="43.61926" lon="6.28434">
        <ele>825.5</ele>
        <time>2017-01-11T15:25:45Z</time>
      </trkpt>
      <trkpt lat="43.61919" lon="6.28439">
        <ele>824.8</ele>
        <time>2017-01-11T15:25:51Z</time>
      </trkpt>
      <trkpt lat="43.61918" lon="6.2844">
        <ele>824.7</ele>
        <time>2017-01-11T15:25:52Z</time>
      </trkpt>
      <trkpt lat="43.61905" lon="6.28453">
        <ele>822.7</ele>
        <time>2017-01-11T15:26:05Z</time>
      </trkpt>
      <trkpt lat="43.61899" lon="6.28461">
        <ele>822</ele>
        <time>2017-01-11T15:26:11Z</time>
      </trkpt>
      <trkpt lat="43.61894" lon="6.28471">
        <ele>821.3</ele>
        <time>2017-01-11T15:26:20Z</time>
      </trkpt>
      <trkpt lat="43.61889" lon="6.28481">
        <ele>821</ele>
        <time>2017-01-11T15:26:27Z</time>
      </trkpt>
      <trkpt lat="43.61886" lon="6.28492">
        <ele>820.9</ele>
        <time>2017-01-11T15:26:34Z</time>
      </trkpt>
      <trkpt lat="43.61883" lon="6.28502">
        <ele>820.9</ele>
        <time>2017-01-11T15:26:41Z</time>
      </trkpt>
      <trkpt lat="43.6188" lon="6.28513">
        <ele>820.9</ele>
        <time>2017-01-11T15:26:47Z</time>
      </trkpt>
      <trkpt lat="43.61877" lon="6.28524">
        <ele>821.1</ele>
        <time>2017-01-11T15:26:54Z</time>
      </trkpt>
      <trkpt lat="43.61877" lon="6.28526">
        <ele>821.1</ele>
        <time>2017-01-11T15:26:55Z</time>
      </trkpt>
      <trkpt lat="43.61871" lon="6.28545">
        <ele>821.3</ele>
        <time>2017-01-11T15:27:10Z</time>
      </trkpt>
      <trkpt lat="43.61867" lon="6.28555">
        <ele>821.4</ele>
        <time>2017-01-11T15:27:18Z</time>
      </trkpt>
      <trkpt lat="43.61863" lon="6.28566">
        <ele>821.6</ele>
        <time>2017-01-11T15:27:27Z</time>
      </trkpt>
      <trkpt lat="43.61858" lon="6.28576">
        <ele>821.9</ele>
        <time>2017-01-11T15:27:36Z</time>
      </trkpt>
      <trkpt lat="43.61853" lon="6.28584">
        <ele>822.1</ele>
        <time>2017-01-11T15:27:45Z</time>
      </trkpt>
      <trkpt lat="43.61846" lon="6.28592">
        <ele>822.4</ele>
        <time>2017-01-11T15:27:56Z</time>
      </trkpt>
      <trkpt lat="43.61845" lon="6.28593">
        <ele>822.4</ele>
        <time>2017-01-11T15:27:57Z</time>
      </trkpt>
      <trkpt lat="43.61832" lon="6.28606">
        <ele>822.3</ele>
        <time>2017-01-11T15:28:16Z</time>
      </trkpt>
      <trkpt lat="43.61824" lon="6.28609">
        <ele>821.8</ele>
        <time>2017-01-11T15:28:23Z</time>
      </trkpt>
      <trkpt lat="43.61816" lon="6.28612">
        <ele>821.5</ele>
        <time>2017-01-11T15:28:30Z</time>
      </trkpt>
      <trkpt lat="43.61808" lon="6.28614">
        <ele>820.9</ele>
        <time>2017-01-11T15:28:37Z</time>
      </trkpt>
      <trkpt lat="43.618" lon="6.28616">
        <ele>820.1</ele>
        <time>2017-01-11T15:28:47Z</time>
      </trkpt>
      <trkpt lat="43.61792" lon="6.28617">
        <ele>819.3</ele>
        <time>2017-01-11T15:28:55Z</time>
      </trkpt>
      <trkpt lat="43.61784" lon="6.28615">
        <ele>818</ele>
        <time>2017-01-11T15:29:03Z</time>
      </trkpt>
      <trkpt lat="43.61783" lon="6.28615">
        <ele>817.9</ele>
        <time>2017-01-11T15:29:04Z</time>
      </trkpt>
      <trkpt lat="43.61767" lon="6.28615">
        <ele>816.3</ele>
        <time>2017-01-11T15:29:18Z</time>
      </trkpt>
      <trkpt lat="43.61759" lon="6.28617">
        <ele>816</ele>
        <time>2017-01-11T15:29:25Z</time>
      </trkpt>
      <trkpt lat="43.61751" lon="6.28618">
        <ele>816.1</ele>
        <time>2017-01-11T15:29:30Z</time>
      </trkpt>
      <trkpt lat="43.61743" lon="6.28621">
        <ele>816.2</ele>
        <time>2017-01-11T15:29:39Z</time>
      </trkpt>
      <trkpt lat="43.61734" lon="6.28623">
        <ele>816.1</ele>
        <time>2017-01-11T15:29:47Z</time>
      </trkpt>
      <trkpt lat="43.61726" lon="6.28625">
        <ele>816.1</ele>
        <time>2017-01-11T15:29:53Z</time>
      </trkpt>
      <trkpt lat="43.61717" lon="6.28627">
        <ele>815.7</ele>
        <time>2017-01-11T15:30:02Z</time>
      </trkpt>
      <trkpt lat="43.61709" lon="6.28628">
        <ele>815.1</ele>
        <time>2017-01-11T15:30:08Z</time>
      </trkpt>
      <trkpt lat="43.61708" lon="6.28629">
        <ele>815</ele>
        <time>2017-01-11T15:30:09Z</time>
      </trkpt>
      <trkpt lat="43.61694" lon="6.28637">
        <ele>813.9</ele>
        <time>2017-01-11T15:30:23Z</time>
      </trkpt>
      <trkpt lat="43.61687" lon="6.28644">
        <ele>813</ele>
        <time>2017-01-11T15:30:31Z</time>
      </trkpt>
      <trkpt lat="43.6168" lon="6.2865">
        <ele>812.5</ele>
        <time>2017-01-11T15:30:39Z</time>
      </trkpt>
      <trkpt lat="43.61673" lon="6.28656">
        <ele>812</ele>
        <time>2017-01-11T15:30:48Z</time>
      </trkpt>
      <trkpt lat="43.61664" lon="6.2866">
        <ele>811.1</ele>
        <time>2017-01-11T15:30:57Z</time>
      </trkpt>
      <trkpt lat="43.61656" lon="6.28663">
        <ele>810.4</ele>
        <time>2017-01-11T15:31:05Z</time>
      </trkpt>
      <trkpt lat="43.61648" lon="6.28666">
        <ele>809.6</ele>
        <time>2017-01-11T15:31:13Z</time>
      </trkpt>
      <trkpt lat="43.61647" lon="6.28667">
        <ele>809.4</ele>
        <time>2017-01-11T15:31:14Z</time>
      </trkpt>
      <trkpt lat="43.61632" lon="6.28674">
        <ele>808</ele>
        <time>2017-01-11T15:31:28Z</time>
      </trkpt>
      <trkpt lat="43.61624" lon="6.28677">
        <ele>806.7</ele>
        <time>2017-01-11T15:31:36Z</time>
      </trkpt>
      <trkpt lat="43.61615" lon="6.2868">
        <ele>806</ele>
        <time>2017-01-11T15:31:44Z</time>
      </trkpt>
      <trkpt lat="43.61606" lon="6.28682">
        <ele>805.4</ele>
        <time>2017-01-11T15:31:53Z</time>
      </trkpt>
      <trkpt lat="43.61598" lon="6.28681">
        <ele>804.9</ele>
        <time>2017-01-11T15:32:01Z</time>
      </trkpt>
      <trkpt lat="43.6159" lon="6.28679">
        <ele>804.4</ele>
        <time>2017-01-11T15:32:10Z</time>
      </trkpt>
      <trkpt lat="43.61582" lon="6.28678">
        <ele>803.4</ele>
        <time>2017-01-11T15:32:17Z</time>
      </trkpt>
      <trkpt lat="43.61581" lon="6.28678">
        <ele>803.3</ele>
        <time>2017-01-11T15:32:18Z</time>
      </trkpt>
      <trkpt lat="43.61565" lon="6.28675">
        <ele>800.7</ele>
        <time>2017-01-11T15:32:37Z</time>
      </trkpt>
      <trkpt lat="43.61557" lon="6.28671">
        <ele>799.9</ele>
        <time>2017-01-11T15:32:45Z</time>
      </trkpt>
      <trkpt lat="43.61549" lon="6.28669">
        <ele>798.9</ele>
        <time>2017-01-11T15:32:55Z</time>
      </trkpt>
      <trkpt lat="43.6154" lon="6.28666">
        <ele>798.5</ele>
        <time>2017-01-11T15:33:02Z</time>
      </trkpt>
      <trkpt lat="43.61533" lon="6.28662">
        <ele>798.2</ele>
        <time>2017-01-11T15:33:09Z</time>
      </trkpt>
      <trkpt lat="43.61526" lon="6.28656">
        <ele>797.6</ele>
        <time>2017-01-11T15:33:17Z</time>
      </trkpt>
      <trkpt lat="43.61519" lon="6.28648">
        <ele>796.9</ele>
        <time>2017-01-11T15:33:25Z</time>
      </trkpt>
      <trkpt lat="43.61519" lon="6.28647">
        <ele>796.8</ele>
        <time>2017-01-11T15:33:26Z</time>
      </trkpt>
      <trkpt lat="43.61508" lon="6.28631">
        <ele>795.6</ele>
        <time>2017-01-11T15:33:40Z</time>
      </trkpt>
      <trkpt lat="43.61502" lon="6.28623">
        <ele>794.7</ele>
        <time>2017-01-11T15:33:47Z</time>
      </trkpt>
      <trkpt lat="43.61497" lon="6.28613">
        <ele>794.3</ele>
        <time>2017-01-11T15:33:55Z</time>
      </trkpt>
      <trkpt lat="43.61496" lon="6.28602">
        <ele>793.7</ele>
        <time>2017-01-11T15:34:03Z</time>
      </trkpt>
      <trkpt lat="43.61499" lon="6.2859">
        <ele>793.1</ele>
        <time>2017-01-11T15:34:11Z</time>
      </trkpt>
      <trkpt lat="43.61502" lon="6.2858">
        <ele>792.7</ele>
        <time>2017-01-11T15:34:18Z</time>
      </trkpt>
      <trkpt lat="43.61505" lon="6.28569">
        <ele>792.6</ele>
        <time>2017-01-11T15:34:25Z</time>
      </trkpt>
      <trkpt lat="43.61506" lon="6.28558">
        <ele>792.3</ele>
        <time>2017-01-11T15:34:33Z</time>
      </trkpt>
      <trkpt lat="43.61505" lon="6.28556">
        <ele>792.2</ele>
        <time>2017-01-11T15:34:34Z</time>
      </trkpt>
      <trkpt lat="43.61498" lon="6.28538">
        <ele>791.2</ele>
        <time>2017-01-11T15:34:47Z</time>
      </trkpt>
      <trkpt lat="43.61492" lon="6.2853">
        <ele>790</ele>
        <time>2017-01-11T15:34:56Z</time>
      </trkpt>
      <trkpt lat="43.61485" lon="6.28523">
        <ele>789.3</ele>
        <time>2017-01-11T15:35:05Z</time>
      </trkpt>
      <trkpt lat="43.61477" lon="6.2852">
        <ele>787.8</ele>
        <time>2017-01-11T15:35:14Z</time>
      </trkpt>
      <trkpt lat="43.61468" lon="6.28519">
        <ele>786.2</ele>
        <time>2017-01-11T15:35:21Z</time>
      </trkpt>
      <trkpt lat="43.6146" lon="6.28519">
        <ele>785.5</ele>
        <time>2017-01-11T15:35:28Z</time>
      </trkpt>
      <trkpt lat="43.61451" lon="6.2852">
        <ele>784.4</ele>
        <time>2017-01-11T15:35:36Z</time>
      </trkpt>
      <trkpt lat="43.61451" lon="6.2852">
        <ele>784.3</ele>
        <time>2017-01-11T15:35:37Z</time>
      </trkpt>
      <trkpt lat="43.61435" lon="6.28522">
        <ele>780.7</ele>
        <time>2017-01-11T15:35:54Z</time>
      </trkpt>
      <trkpt lat="43.61426" lon="6.2852">
        <ele>778.7</ele>
        <time>2017-01-11T15:36:05Z</time>
      </trkpt>
      <trkpt lat="43.61417" lon="6.28519">
        <ele>777</ele>
        <time>2017-01-11T15:36:14Z</time>
      </trkpt>
      <trkpt lat="43.6141" lon="6.28518">
        <ele>775.7</ele>
        <time>2017-01-11T15:36:21Z</time>
      </trkpt>
      <trkpt lat="43.61401" lon="6.28517">
        <ele>774</ele>
        <time>2017-01-11T15:36:29Z</time>
      </trkpt>
      <trkpt lat="43.61393" lon="6.28515">
        <ele>772.9</ele>
        <time>2017-01-11T15:36:37Z</time>
      </trkpt>
      <trkpt lat="43.61392" lon="6.28515">
        <ele>772.7</ele>
        <time>2017-01-11T15:36:38Z</time>
      </trkpt>
      <trkpt lat="43.61377" lon="6.28512">
        <ele>770.1</ele>
        <time>2017-01-11T15:36:53Z</time>
      </trkpt>
      <trkpt lat="43.61368" lon="6.28511">
        <ele>768.7</ele>
        <time>2017-01-11T15:37:02Z</time>
      </trkpt>
      <trkpt lat="43.6136" lon="6.28511">
        <ele>767.9</ele>
        <time>2017-01-11T15:37:09Z</time>
      </trkpt>
      <trkpt lat="43.61352" lon="6.28516">
        <ele>766.9</ele>
        <time>2017-01-11T15:37:17Z</time>
      </trkpt>
      <trkpt lat="43.61345" lon="6.28523">
        <ele>766.1</ele>
        <time>2017-01-11T15:37:25Z</time>
      </trkpt>
      <trkpt lat="43.61339" lon="6.28528">
        <ele>765.1</ele>
        <time>2017-01-11T15:37:33Z</time>
      </trkpt>
      <trkpt lat="43.6133" lon="6.28532">
        <ele>764</ele>
        <time>2017-01-11T15:37:41Z</time>
      </trkpt>
      <trkpt lat="43.61329" lon="6.28533">
        <ele>763.9</ele>
        <time>2017-01-11T15:37:42Z</time>
      </trkpt>
      <trkpt lat="43.61317" lon="6.28545">
        <ele>761.9</ele>
        <time>2017-01-11T15:37:57Z</time>
      </trkpt>
      <trkpt lat="43.6131" lon="6.28552">
        <ele>760.6</ele>
        <time>2017-01-11T15:38:04Z</time>
      </trkpt>
      <trkpt lat="43.61303" lon="6.2856">
        <ele>759.8</ele>
        <time>2017-01-11T15:38:11Z</time>
      </trkpt>
      <trkpt lat="43.61296" lon="6.28568">
        <ele>758.3</ele>
        <time>2017-01-11T15:38:18Z</time>
      </trkpt>
      <trkpt lat="43.6129" lon="6.28574">
        <ele>757.3</ele>
        <time>2017-01-11T15:38:24Z</time>
      </trkpt>
      <trkpt lat="43.61284" lon="6.28581">
        <ele>756.4</ele>
        <time>2017-01-11T15:38:31Z</time>
      </trkpt>
      <trkpt lat="43.61278" lon="6.28588">
        <ele>754.9</ele>
        <time>2017-01-11T15:38:38Z</time>
      </trkpt>
      <trkpt lat="43.61272" lon="6.28595">
        <ele>753.5</ele>
        <time>2017-01-11T15:38:44Z</time>
      </trkpt>
      <trkpt lat="43.61271" lon="6.28596">
        <ele>753.3</ele>
        <time>2017-01-11T15:38:45Z</time>
      </trkpt>
      <trkpt lat="43.61259" lon="6.28609">
        <ele>751.7</ele>
        <time>2017-01-11T15:38:56Z</time>
      </trkpt>
      <trkpt lat="43.61252" lon="6.28617">
        <ele>751</ele>
        <time>2017-01-11T15:39:02Z</time>
      </trkpt>
      <trkpt lat="43.61248" lon="6.28627">
        <ele>749.8</ele>
        <time>2017-01-11T15:39:08Z</time>
      </trkpt>
      <trkpt lat="43.61244" lon="6.28636">
        <ele>749.2</ele>
        <time>2017-01-11T15:39:14Z</time>
      </trkpt>
      <trkpt lat="43.61241" lon="6.28646">
        <ele>748.9</ele>
        <time>2017-01-11T15:39:20Z</time>
      </trkpt>
      <trkpt lat="43.61238" lon="6.28656">
        <ele>748.4</ele>
        <time>2017-01-11T15:39:26Z</time>
      </trkpt>
      <trkpt lat="43.61234" lon="6.28666">
        <ele>748.1</ele>
        <time>2017-01-11T15:39:32Z</time>
      </trkpt>
      <trkpt lat="43.6123" lon="6.28676">
        <ele>747.5</ele>
        <time>2017-01-11T15:39:38Z</time>
      </trkpt>
      <trkpt lat="43.61227" lon="6.28687">
        <ele>746.7</ele>
        <time>2017-01-11T15:39:44Z</time>
      </trkpt>
      <trkpt lat="43.61227" lon="6.28699">
        <ele>746.2</ele>
        <time>2017-01-11T15:39:51Z</time>
      </trkpt>
      <trkpt lat="43.61228" lon="6.287">
        <ele>746.1</ele>
        <time>2017-01-11T15:39:52Z</time>
      </trkpt>
      <trkpt lat="43.61226" lon="6.28721">
        <ele>743.9</ele>
        <time>2017-01-11T15:40:04Z</time>
      </trkpt>
      <trkpt lat="43.61221" lon="6.2873">
        <ele>742.9</ele>
        <time>2017-01-11T15:40:10Z</time>
      </trkpt>
      <trkpt lat="43.61216" lon="6.28737">
        <ele>741.9</ele>
        <time>2017-01-11T15:40:16Z</time>
      </trkpt>
      <trkpt lat="43.6121" lon="6.28746">
        <ele>740.9</ele>
        <time>2017-01-11T15:40:23Z</time>
      </trkpt>
      <trkpt lat="43.61203" lon="6.28754">
        <ele>740.3</ele>
        <time>2017-01-11T15:40:30Z</time>
      </trkpt>
      <trkpt lat="43.61197" lon="6.28761">
        <ele>739.2</ele>
        <time>2017-01-11T15:40:36Z</time>
      </trkpt>
      <trkpt lat="43.61192" lon="6.28768">
        <ele>738.6</ele>
        <time>2017-01-11T15:40:43Z</time>
      </trkpt>
      <trkpt lat="43.61184" lon="6.28773">
        <ele>737.7</ele>
        <time>2017-01-11T15:40:51Z</time>
      </trkpt>
      <trkpt lat="43.61176" lon="6.28775">
        <ele>737.1</ele>
        <time>2017-01-11T15:40:58Z</time>
      </trkpt>
      <trkpt lat="43.61175" lon="6.28776">
        <ele>737.1</ele>
        <time>2017-01-11T15:40:59Z</time>
      </trkpt>
      <trkpt lat="43.6116" lon="6.28784">
        <ele>736.3</ele>
        <time>2017-01-11T15:41:12Z</time>
      </trkpt>
      <trkpt lat="43.61153" lon="6.2879">
        <ele>735.9</ele>
        <time>2017-01-11T15:41:20Z</time>
      </trkpt>
      <trkpt lat="43.61147" lon="6.288">
        <ele>735.2</ele>
        <time>2017-01-11T15:41:29Z</time>
      </trkpt>
      <trkpt lat="43.61141" lon="6.28809">
        <ele>732.7</ele>
        <time>2017-01-11T15:42:27Z</time>
      </trkpt>
      <trkpt lat="43.61141" lon="6.28811">
        <ele>732.6</ele>
        <time>2017-01-11T15:42:28Z</time>
      </trkpt>
      <trkpt lat="43.61129" lon="6.28823">
        <ele>731.9</ele>
        <time>2017-01-11T15:42:42Z</time>
      </trkpt>
      <trkpt lat="43.6112" lon="6.28826">
        <ele>731.5</ele>
        <time>2017-01-11T15:42:51Z</time>
      </trkpt>
      <trkpt lat="43.61112" lon="6.28827">
        <ele>731.2</ele>
        <time>2017-01-11T15:43:00Z</time>
      </trkpt>
      <trkpt lat="43.61103" lon="6.28829">
        <ele>730.3</ele>
        <time>2017-01-11T15:43:08Z</time>
      </trkpt>
      <trkpt lat="43.61096" lon="6.28833">
        <ele>729.7</ele>
        <time>2017-01-11T15:43:14Z</time>
      </trkpt>
      <trkpt lat="43.61088" lon="6.28838">
        <ele>729.3</ele>
        <time>2017-01-11T15:43:21Z</time>
      </trkpt>
      <trkpt lat="43.61081" lon="6.28844">
        <ele>729.2</ele>
        <time>2017-01-11T15:43:28Z</time>
      </trkpt>
      <trkpt lat="43.6108" lon="6.28845">
        <ele>729.1</ele>
        <time>2017-01-11T15:43:29Z</time>
      </trkpt>
      <trkpt lat="43.61065" lon="6.28854">
        <ele>728.3</ele>
        <time>2017-01-11T15:43:42Z</time>
      </trkpt>
      <trkpt lat="43.61058" lon="6.28858">
        <ele>727.8</ele>
        <time>2017-01-11T15:43:49Z</time>
      </trkpt>
      <trkpt lat="43.61051" lon="6.28862">
        <ele>727</ele>
        <time>2017-01-11T15:43:57Z</time>
      </trkpt>
      <trkpt lat="43.61043" lon="6.28867">
        <ele>726.3</ele>
        <time>2017-01-11T15:44:05Z</time>
      </trkpt>
      <trkpt lat="43.61035" lon="6.2887">
        <ele>725.5</ele>
        <time>2017-01-11T15:44:12Z</time>
      </trkpt>
      <trkpt lat="43.61027" lon="6.28874">
        <ele>724.7</ele>
        <time>2017-01-11T15:44:19Z</time>
      </trkpt>
      <trkpt lat="43.61019" lon="6.28877">
        <ele>723.8</ele>
        <time>2017-01-11T15:44:26Z</time>
      </trkpt>
      <trkpt lat="43.61011" lon="6.2888">
        <ele>723.3</ele>
        <time>2017-01-11T15:44:34Z</time>
      </trkpt>
      <trkpt lat="43.6101" lon="6.28881">
        <ele>723.2</ele>
        <time>2017-01-11T15:44:35Z</time>
      </trkpt>
      <trkpt lat="43.60995" lon="6.28885">
        <ele>722.5</ele>
        <time>2017-01-11T15:44:48Z</time>
      </trkpt>
      <trkpt lat="43.60987" lon="6.28887">
        <ele>722.3</ele>
        <time>2017-01-11T15:44:56Z</time>
      </trkpt>
      <trkpt lat="43.60979" lon="6.28889">
        <ele>722.2</ele>
        <time>2017-01-11T15:45:04Z</time>
      </trkpt>
      <trkpt lat="43.60971" lon="6.28892">
        <ele>722.5</ele>
        <time>2017-01-11T15:45:12Z</time>
      </trkpt>
      <trkpt lat="43.60963" lon="6.28894">
        <ele>723.2</ele>
        <time>2017-01-11T15:45:19Z</time>
      </trkpt>
      <trkpt lat="43.60955" lon="6.28898">
        <ele>723.5</ele>
        <time>2017-01-11T15:45:26Z</time>
      </trkpt>
      <trkpt lat="43.60946" lon="6.28896">
        <ele>724.2</ele>
        <time>2017-01-11T15:45:35Z</time>
      </trkpt>
      <trkpt lat="43.60941" lon="6.28888">
        <ele>724.7</ele>
        <time>2017-01-11T15:45:42Z</time>
      </trkpt>
      <trkpt lat="43.6094" lon="6.28887">
        <ele>724.8</ele>
        <time>2017-01-11T15:45:43Z</time>
      </trkpt>
      <trkpt lat="43.60932" lon="6.28868">
        <ele>725.9</ele>
        <time>2017-01-11T15:45:58Z</time>
      </trkpt>
      <trkpt lat="43.60928" lon="6.28858">
        <ele>726.7</ele>
        <time>2017-01-11T15:46:06Z</time>
      </trkpt>
      <trkpt lat="43.60923" lon="6.2885">
        <ele>726.8</ele>
        <time>2017-01-11T15:46:13Z</time>
      </trkpt>
      <trkpt lat="43.60916" lon="6.28842">
        <ele>727.4</ele>
        <time>2017-01-11T15:46:21Z</time>
      </trkpt>
      <trkpt lat="43.6091" lon="6.28833">
        <ele>727.6</ele>
        <time>2017-01-11T15:46:29Z</time>
      </trkpt>
      <trkpt lat="43.60905" lon="6.28823">
        <ele>727.6</ele>
        <time>2017-01-11T15:46:37Z</time>
      </trkpt>
      <trkpt lat="43.60899" lon="6.28815">
        <ele>727.7</ele>
        <time>2017-01-11T15:46:44Z</time>
      </trkpt>
      <trkpt lat="43.60898" lon="6.28813">
        <ele>727.7</ele>
        <time>2017-01-11T15:46:45Z</time>
      </trkpt>
      <trkpt lat="43.60886" lon="6.288">
        <ele>727.7</ele>
        <time>2017-01-11T15:46:58Z</time>
      </trkpt>
      <trkpt lat="43.60881" lon="6.28793">
        <ele>727.9</ele>
        <time>2017-01-11T15:47:04Z</time>
      </trkpt>
      <trkpt lat="43.60874" lon="6.28785">
        <ele>728.4</ele>
        <time>2017-01-11T15:47:11Z</time>
      </trkpt>
      <trkpt lat="43.60867" lon="6.28778">
        <ele>728.6</ele>
        <time>2017-01-11T15:47:18Z</time>
      </trkpt>
      <trkpt lat="43.6086" lon="6.28771">
        <ele>728.6</ele>
        <time>2017-01-11T15:47:26Z</time>
      </trkpt>
      <trkpt lat="43.60853" lon="6.28766">
        <ele>728.7</ele>
        <time>2017-01-11T15:47:33Z</time>
      </trkpt>
      <trkpt lat="43.60845" lon="6.2876">
        <ele>729</ele>
        <time>2017-01-11T15:47:40Z</time>
      </trkpt>
      <trkpt lat="43.60838" lon="6.28756">
        <ele>729</ele>
        <time>2017-01-11T15:47:46Z</time>
      </trkpt>
      <trkpt lat="43.60837" lon="6.28756">
        <ele>729.1</ele>
        <time>2017-01-11T15:47:47Z</time>
      </trkpt>
      <trkpt lat="43.60823" lon="6.28749">
        <ele>729.8</ele>
        <time>2017-01-11T15:47:58Z</time>
      </trkpt>
      <trkpt lat="43.60815" lon="6.28747">
        <ele>730.2</ele>
        <time>2017-01-11T15:48:05Z</time>
      </trkpt>
      <trkpt lat="43.60807" lon="6.28746">
        <ele>730.4</ele>
        <time>2017-01-11T15:48:11Z</time>
      </trkpt>
      <trkpt lat="43.60798" lon="6.28746">
        <ele>730.6</ele>
        <time>2017-01-11T15:48:18Z</time>
      </trkpt>
      <trkpt lat="43.6079" lon="6.28748">
        <ele>730.6</ele>
        <time>2017-01-11T15:48:25Z</time>
      </trkpt>
      <trkpt lat="43.60783" lon="6.28752">
        <ele>730.9</ele>
        <time>2017-01-11T15:48:33Z</time>
      </trkpt>
      <trkpt lat="43.60776" lon="6.28759">
        <ele>730.9</ele>
        <time>2017-01-11T15:48:40Z</time>
      </trkpt>
      <trkpt lat="43.60768" lon="6.28765">
        <ele>730.8</ele>
        <time>2017-01-11T15:48:47Z</time>
      </trkpt>
      <trkpt lat="43.60767" lon="6.28766">
        <ele>730.9</ele>
        <time>2017-01-11T15:48:48Z</time>
      </trkpt>
      <trkpt lat="43.60756" lon="6.2878">
        <ele>731</ele>
        <time>2017-01-11T15:49:01Z</time>
      </trkpt>
      <trkpt lat="43.6075" lon="6.28787">
        <ele>731.2</ele>
        <time>2017-01-11T15:49:08Z</time>
      </trkpt>
      <trkpt lat="43.60743" lon="6.28794">
        <ele>731.4</ele>
        <time>2017-01-11T15:49:23Z</time>
      </trkpt>
      <trkpt lat="43.60735" lon="6.28799">
        <ele>730.3</ele>
        <time>2017-01-11T15:52:22Z</time>
      </trkpt>
      <trkpt lat="43.60735" lon="6.288">
        <ele>730.2</ele>
        <time>2017-01-11T15:52:23Z</time>
      </trkpt>
      <trkpt lat="43.60718" lon="6.28803">
        <ele>729.5</ele>
        <time>2017-01-11T15:52:57Z</time>
      </trkpt>
      <trkpt lat="43.6071" lon="6.28807">
        <ele>728.3</ele>
        <time>2017-01-11T15:53:07Z</time>
      </trkpt>
      <trkpt lat="43.60702" lon="6.2881">
        <ele>727.6</ele>
        <time>2017-01-11T15:53:15Z</time>
      </trkpt>
      <trkpt lat="43.60694" lon="6.28816">
        <ele>726.4</ele>
        <time>2017-01-11T15:53:23Z</time>
      </trkpt>
      <trkpt lat="43.60693" lon="6.28816">
        <ele>726.3</ele>
        <time>2017-01-11T15:53:24Z</time>
      </trkpt>
      <trkpt lat="43.60677" lon="6.2882">
        <ele>724</ele>
        <time>2017-01-11T15:53:42Z</time>
      </trkpt>
      <trkpt lat="43.60669" lon="6.28821">
        <ele>722.9</ele>
        <time>2017-01-11T15:53:51Z</time>
      </trkpt>
      <trkpt lat="43.6066" lon="6.28822">
        <ele>721.9</ele>
        <time>2017-01-11T15:53:59Z</time>
      </trkpt>
      <trkpt lat="43.60653" lon="6.28826">
        <ele>720.7</ele>
        <time>2017-01-11T15:54:06Z</time>
      </trkpt>
      <trkpt lat="43.60645" lon="6.28832">
        <ele>719.8</ele>
        <time>2017-01-11T15:54:14Z</time>
      </trkpt>
      <trkpt lat="43.60638" lon="6.28838">
        <ele>718.8</ele>
        <time>2017-01-11T15:54:21Z</time>
      </trkpt>
      <trkpt lat="43.60631" lon="6.28844">
        <ele>718.2</ele>
        <time>2017-01-11T15:54:28Z</time>
      </trkpt>
      <trkpt lat="43.6063" lon="6.28844">
        <ele>718.2</ele>
        <time>2017-01-11T15:54:29Z</time>
      </trkpt>
      <trkpt lat="43.60616" lon="6.28855">
        <ele>716.5</ele>
        <time>2017-01-11T15:54:42Z</time>
      </trkpt>
      <trkpt lat="43.60609" lon="6.28861">
        <ele>716.4</ele>
        <time>2017-01-11T15:54:49Z</time>
      </trkpt>
      <trkpt lat="43.60602" lon="6.28866">
        <ele>716.2</ele>
        <time>2017-01-11T15:54:56Z</time>
      </trkpt>
      <trkpt lat="43.60594" lon="6.28872">
        <ele>715.5</ele>
        <time>2017-01-11T15:55:06Z</time>
      </trkpt>
      <trkpt lat="43.60587" lon="6.28878">
        <ele>714.2</ele>
        <time>2017-01-11T15:55:32Z</time>
      </trkpt>
      <trkpt lat="43.60586" lon="6.28879">
        <ele>714.2</ele>
        <time>2017-01-11T15:55:33Z</time>
      </trkpt>
      <trkpt lat="43.60571" lon="6.28883">
        <ele>713.4</ele>
        <time>2017-01-11T15:55:47Z</time>
      </trkpt>
      <trkpt lat="43.60563" lon="6.28885">
        <ele>712.5</ele>
        <time>2017-01-11T15:55:54Z</time>
      </trkpt>
      <trkpt lat="43.60555" lon="6.28886">
        <ele>712</ele>
        <time>2017-01-11T15:56:01Z</time>
      </trkpt>
      <trkpt lat="43.60547" lon="6.28888">
        <ele>711.5</ele>
        <time>2017-01-11T15:56:08Z</time>
      </trkpt>
      <trkpt lat="43.60539" lon="6.2889">
        <ele>711.2</ele>
        <time>2017-01-11T15:56:15Z</time>
      </trkpt>
      <trkpt lat="43.6053" lon="6.2889">
        <ele>710.5</ele>
        <time>2017-01-11T15:56:23Z</time>
      </trkpt>
      <trkpt lat="43.60522" lon="6.28892">
        <ele>710.2</ele>
        <time>2017-01-11T15:56:30Z</time>
      </trkpt>
      <trkpt lat="43.60515" lon="6.28899">
        <ele>709.9</ele>
        <time>2017-01-11T15:56:37Z</time>
      </trkpt>
      <trkpt lat="43.60514" lon="6.289">
        <ele>709.8</ele>
        <time>2017-01-11T15:56:38Z</time>
      </trkpt>
      <trkpt lat="43.60506" lon="6.28918">
        <ele>709.3</ele>
        <time>2017-01-11T15:56:51Z</time>
      </trkpt>
      <trkpt lat="43.60502" lon="6.28928">
        <ele>709.2</ele>
        <time>2017-01-11T15:56:58Z</time>
      </trkpt>
      <trkpt lat="43.60499" lon="6.28939">
        <ele>708.3</ele>
        <time>2017-01-11T15:57:06Z</time>
      </trkpt>
      <trkpt lat="43.60494" lon="6.2895">
        <ele>707.5</ele>
        <time>2017-01-11T15:57:14Z</time>
      </trkpt>
      <trkpt lat="43.60493" lon="6.28962">
        <ele>706.8</ele>
        <time>2017-01-11T15:57:22Z</time>
      </trkpt>
      <trkpt lat="43.60491" lon="6.28973">
        <ele>705.9</ele>
        <time>2017-01-11T15:57:29Z</time>
      </trkpt>
      <trkpt lat="43.60488" lon="6.28983">
        <ele>705.1</ele>
        <time>2017-01-11T15:57:36Z</time>
      </trkpt>
      <trkpt lat="43.60483" lon="6.28991">
        <ele>704.5</ele>
        <time>2017-01-11T15:57:43Z</time>
      </trkpt>
      <trkpt lat="43.60482" lon="6.28992">
        <ele>704.4</ele>
        <time>2017-01-11T15:57:44Z</time>
      </trkpt>
      <trkpt lat="43.60468" lon="6.29004">
        <ele>702.4</ele>
        <time>2017-01-11T15:57:59Z</time>
      </trkpt>
      <trkpt lat="43.60461" lon="6.29012">
        <ele>701.2</ele>
        <time>2017-01-11T15:58:07Z</time>
      </trkpt>
      <trkpt lat="43.60455" lon="6.29019">
        <ele>700.3</ele>
        <time>2017-01-11T15:58:14Z</time>
      </trkpt>
      <trkpt lat="43.60448" lon="6.29024">
        <ele>699.2</ele>
        <time>2017-01-11T15:58:21Z</time>
      </trkpt>
      <trkpt lat="43.60439" lon="6.29025">
        <ele>698</ele>
        <time>2017-01-11T15:58:29Z</time>
      </trkpt>
      <trkpt lat="43.60431" lon="6.29025">
        <ele>696.9</ele>
        <time>2017-01-11T15:58:36Z</time>
      </trkpt>
      <trkpt lat="43.60423" lon="6.29026">
        <ele>695.7</ele>
        <time>2017-01-11T15:58:44Z</time>
      </trkpt>
      <trkpt lat="43.60422" lon="6.29027">
        <ele>695.6</ele>
        <time>2017-01-11T15:58:45Z</time>
      </trkpt>
      <trkpt lat="43.60406" lon="6.29027">
        <ele>693.6</ele>
        <time>2017-01-11T15:59:00Z</time>
      </trkpt>
      <trkpt lat="43.60398" lon="6.29027">
        <ele>692.4</ele>
        <time>2017-01-11T15:59:08Z</time>
      </trkpt>
      <trkpt lat="43.60389" lon="6.29027">
        <ele>691.6</ele>
        <time>2017-01-11T15:59:16Z</time>
      </trkpt>
      <trkpt lat="43.60381" lon="6.29027">
        <ele>690.5</ele>
        <time>2017-01-11T15:59:24Z</time>
      </trkpt>
      <trkpt lat="43.60372" lon="6.29029">
        <ele>689.4</ele>
        <time>2017-01-11T15:59:32Z</time>
      </trkpt>
      <trkpt lat="43.60364" lon="6.2903">
        <ele>687.8</ele>
        <time>2017-01-11T15:59:40Z</time>
      </trkpt>
      <trkpt lat="43.60356" lon="6.29031">
        <ele>686.5</ele>
        <time>2017-01-11T15:59:48Z</time>
      </trkpt>
      <trkpt lat="43.60354" lon="6.29031">
        <ele>686.3</ele>
        <time>2017-01-11T15:59:49Z</time>
      </trkpt>
      <trkpt lat="43.60339" lon="6.29031">
        <ele>685</ele>
        <time>2017-01-11T16:00:03Z</time>
      </trkpt>
      <trkpt lat="43.60331" lon="6.29025">
        <ele>683.8</ele>
        <time>2017-01-11T16:00:12Z</time>
      </trkpt>
      <trkpt lat="43.60325" lon="6.29016">
        <ele>682.7</ele>
        <time>2017-01-11T16:00:20Z</time>
      </trkpt>
      <trkpt lat="43.60319" lon="6.29008">
        <ele>681.9</ele>
        <time>2017-01-11T16:00:27Z</time>
      </trkpt>
      <trkpt lat="43.60313" lon="6.29">
        <ele>681.2</ele>
        <time>2017-01-11T16:00:34Z</time>
      </trkpt>
      <trkpt lat="43.60305" lon="6.29004">
        <ele>680.6</ele>
        <time>2017-01-11T16:00:44Z</time>
      </trkpt>
      <trkpt lat="43.60303" lon="6.29016">
        <ele>680.2</ele>
        <time>2017-01-11T16:00:52Z</time>
      </trkpt>
      <trkpt lat="43.60303" lon="6.29017">
        <ele>680.2</ele>
        <time>2017-01-11T16:00:53Z</time>
      </trkpt>
      <trkpt lat="43.60301" lon="6.29039">
        <ele>680</ele>
        <time>2017-01-11T16:01:08Z</time>
      </trkpt>
      <trkpt lat="43.60301" lon="6.2905">
        <ele>679.6</ele>
        <time>2017-01-11T16:01:16Z</time>
      </trkpt>
      <trkpt lat="43.60302" lon="6.29062">
        <ele>679.1</ele>
        <time>2017-01-11T16:01:25Z</time>
      </trkpt>
      <trkpt lat="43.60301" lon="6.29074">
        <ele>678.3</ele>
        <time>2017-01-11T16:01:33Z</time>
      </trkpt>
      <trkpt lat="43.60299" lon="6.29085">
        <ele>677.5</ele>
        <time>2017-01-11T16:01:40Z</time>
      </trkpt>
      <trkpt lat="43.60295" lon="6.29096">
        <ele>676.7</ele>
        <time>2017-01-11T16:01:48Z</time>
      </trkpt>
      <trkpt lat="43.60294" lon="6.29108">
        <ele>676.1</ele>
        <time>2017-01-11T16:01:57Z</time>
      </trkpt>
      <trkpt lat="43.60293" lon="6.2911">
        <ele>676</ele>
        <time>2017-01-11T16:01:58Z</time>
      </trkpt>
      <trkpt lat="43.60284" lon="6.29127">
        <ele>673.7</ele>
        <time>2017-01-11T16:02:13Z</time>
      </trkpt>
      <trkpt lat="43.60276" lon="6.29133">
        <ele>672.4</ele>
        <time>2017-01-11T16:02:21Z</time>
      </trkpt>
      <trkpt lat="43.60269" lon="6.29139">
        <ele>671.1</ele>
        <time>2017-01-11T16:02:29Z</time>
      </trkpt>
      <trkpt lat="43.60262" lon="6.29147">
        <ele>670.1</ele>
        <time>2017-01-11T16:02:37Z</time>
      </trkpt>
      <trkpt lat="43.60259" lon="6.29157">
        <ele>669</ele>
        <time>2017-01-11T16:02:45Z</time>
      </trkpt>
      <trkpt lat="43.6026" lon="6.2917">
        <ele>667.5</ele>
        <time>2017-01-11T16:02:56Z</time>
      </trkpt>
      <trkpt lat="43.60262" lon="6.29182">
        <ele>666.2</ele>
        <time>2017-01-11T16:03:07Z</time>
      </trkpt>
      <trkpt lat="43.60263" lon="6.29183">
        <ele>666.1</ele>
        <time>2017-01-11T16:03:08Z</time>
      </trkpt>
      <trkpt lat="43.60276" lon="6.29196">
        <ele>665.1</ele>
        <time>2017-01-11T16:03:26Z</time>
      </trkpt>
      <trkpt lat="43.60284" lon="6.29201">
        <ele>664.6</ele>
        <time>2017-01-11T16:03:33Z</time>
      </trkpt>
      <trkpt lat="43.60292" lon="6.29202">
        <ele>664.4</ele>
        <time>2017-01-11T16:03:40Z</time>
      </trkpt>
      <trkpt lat="43.603" lon="6.29204">
        <ele>664.1</ele>
        <time>2017-01-11T16:03:47Z</time>
      </trkpt>
      <trkpt lat="43.60308" lon="6.29206">
        <ele>664</ele>
        <time>2017-01-11T16:03:54Z</time>
      </trkpt>
      <trkpt lat="43.60316" lon="6.29208">
        <ele>664.1</ele>
        <time>2017-01-11T16:04:02Z</time>
      </trkpt>
      <trkpt lat="43.60324" lon="6.2921">
        <ele>664</ele>
        <time>2017-01-11T16:04:11Z</time>
      </trkpt>
      <trkpt lat="43.60325" lon="6.2921">
        <ele>664.1</ele>
        <time>2017-01-11T16:04:12Z</time>
      </trkpt>
      <trkpt lat="43.60336" lon="6.29219">
        <ele>663.7</ele>
        <time>2017-01-11T16:11:08Z</time>
      </trkpt>
      <trkpt lat="43.60337" lon="6.2922">
        <ele>663.7</ele>
        <time>2017-01-11T16:11:09Z</time>
      </trkpt>
      <trkpt lat="43.60323" lon="6.29212">
        <ele>662.9</ele>
        <time>2017-01-11T16:11:22Z</time>
      </trkpt>
      <trkpt lat="43.60315" lon="6.2921">
        <ele>662.7</ele>
        <time>2017-01-11T16:11:25Z</time>
      </trkpt>
      <trkpt lat="43.60308" lon="6.29208">
        <ele>662.6</ele>
        <time>2017-01-11T16:11:28Z</time>
      </trkpt>
      <trkpt lat="43.60301" lon="6.29206">
        <ele>662.3</ele>
        <time>2017-01-11T16:11:31Z</time>
      </trkpt>
      <trkpt lat="43.60294" lon="6.29205">
        <ele>662.1</ele>
        <time>2017-01-11T16:11:34Z</time>
      </trkpt>
      <trkpt lat="43.60286" lon="6.29202">
        <ele>661.8</ele>
        <time>2017-01-11T16:11:39Z</time>
      </trkpt>
      <trkpt lat="43.60278" lon="6.29197">
        <ele>661.4</ele>
        <time>2017-01-11T16:11:47Z</time>
      </trkpt>
      <trkpt lat="43.60272" lon="6.29191">
        <ele>661.2</ele>
        <time>2017-01-11T16:11:51Z</time>
      </trkpt>
      <trkpt lat="43.60263" lon="6.29193">
        <ele>661</ele>
        <time>2017-01-11T16:11:57Z</time>
      </trkpt>
    </trkseg>
  </trk>
</gpx>